<?xml version="1.0" encoding="UTF-8" standalone="no" ?>
<gpx xmlns="http://www.topografix.com/GPX/1/1" xmlns:xsi="http://www.w3.org/2001/XMLSchema-instance" xsi:schemaLocation="http://www.topografix.com/GPX/1/1 http://www.topografix.com/GPX/1/1/gpx.xsd" version="1.1" creator="VisuGPX - https://www.visugpx.com">
  <metadata>
    <name>Boucle VTT Frontenas</name>
    <desc><![CDATA[Joli boucle de 2H entre les vignes du Beaujolais ]]></desc>
  </metadata>
  <trk>
    <name><![CDATA[79og2338 on GPSies.com]]></name>
    <trkseg>
      <trkpt lat="45.92719" lon="4.62316">
        <ele>378</ele>
        <time>2017-09-24T16:23:38Z</time>
      </trkpt>
      <trkpt lat="45.92717" lon="4.62316">
        <ele>378</ele>
        <time>2017-09-24T16:23:42Z</time>
      </trkpt>
      <trkpt lat="45.92722" lon="4.62311">
        <ele>379</ele>
        <time>2017-09-24T16:26:59Z</time>
      </trkpt>
      <trkpt lat="45.92722" lon="4.62311">
        <ele>379</ele>
        <time>2017-09-24T16:27:35Z</time>
      </trkpt>
      <trkpt lat="45.92722" lon="4.62312">
        <ele>379</ele>
        <time>2017-09-24T16:27:43Z</time>
      </trkpt>
      <trkpt lat="45.92722" lon="4.6232">
        <ele>379</ele>
        <time>2017-09-24T16:27:46Z</time>
      </trkpt>
      <trkpt lat="45.92729" lon="4.62394">
        <ele>377</ele>
        <time>2017-09-24T16:28:07Z</time>
      </trkpt>
      <trkpt lat="45.92726" lon="4.62446">
        <ele>376</ele>
        <time>2017-09-24T16:28:17Z</time>
      </trkpt>
      <trkpt lat="45.92726" lon="4.6248">
        <ele>375</ele>
        <time>2017-09-24T16:28:22Z</time>
      </trkpt>
      <trkpt lat="45.92726" lon="4.62504">
        <ele>373</ele>
        <time>2017-09-24T16:28:26Z</time>
      </trkpt>
      <trkpt lat="45.92727" lon="4.62531">
        <ele>372</ele>
        <time>2017-09-24T16:28:30Z</time>
      </trkpt>
      <trkpt lat="45.92727" lon="4.62538">
        <ele>372</ele>
        <time>2017-09-24T16:28:31Z</time>
      </trkpt>
      <trkpt lat="45.92728" lon="4.62554">
        <ele>371</ele>
        <time>2017-09-24T16:28:33Z</time>
      </trkpt>
      <trkpt lat="45.9273" lon="4.62579">
        <ele>370</ele>
        <time>2017-09-24T16:28:36Z</time>
      </trkpt>
      <trkpt lat="45.92731" lon="4.62595">
        <ele>369</ele>
        <time>2017-09-24T16:28:38Z</time>
      </trkpt>
      <trkpt lat="45.92732" lon="4.62611">
        <ele>368</ele>
        <time>2017-09-24T16:28:40Z</time>
      </trkpt>
      <trkpt lat="45.92734" lon="4.62627">
        <ele>367</ele>
        <time>2017-09-24T16:28:42Z</time>
      </trkpt>
      <trkpt lat="45.92737" lon="4.62649">
        <ele>365</ele>
        <time>2017-09-24T16:28:45Z</time>
      </trkpt>
      <trkpt lat="45.92742" lon="4.62659">
        <ele>364</ele>
        <time>2017-09-24T16:28:47Z</time>
      </trkpt>
      <trkpt lat="45.92746" lon="4.62661">
        <ele>364</ele>
        <time>2017-09-24T16:28:48Z</time>
      </trkpt>
      <trkpt lat="45.92765" lon="4.62658">
        <ele>363</ele>
        <time>2017-09-24T16:28:53Z</time>
      </trkpt>
      <trkpt lat="45.92795" lon="4.62642">
        <ele>364</ele>
        <time>2017-09-24T16:29:02Z</time>
      </trkpt>
      <trkpt lat="45.92823" lon="4.62614">
        <ele>365</ele>
        <time>2017-09-24T16:29:12Z</time>
      </trkpt>
      <trkpt lat="45.92833" lon="4.62603">
        <ele>366</ele>
        <time>2017-09-24T16:29:16Z</time>
      </trkpt>
      <trkpt lat="45.92848" lon="4.62583">
        <ele>366</ele>
        <time>2017-09-24T16:29:22Z</time>
      </trkpt>
      <trkpt lat="45.92873" lon="4.62512">
        <ele>366</ele>
        <time>2017-09-24T16:29:39Z</time>
      </trkpt>
      <trkpt lat="45.9288" lon="4.6248">
        <ele>367</ele>
        <time>2017-09-24T16:30:05Z</time>
      </trkpt>
      <trkpt lat="45.92882" lon="4.62474">
        <ele>367</ele>
        <time>2017-09-24T16:30:07Z</time>
      </trkpt>
      <trkpt lat="45.92913" lon="4.62405">
        <ele>367</ele>
        <time>2017-09-24T16:30:21Z</time>
      </trkpt>
      <trkpt lat="45.92926" lon="4.62362">
        <ele>367</ele>
        <time>2017-09-24T16:30:30Z</time>
      </trkpt>
      <trkpt lat="45.92927" lon="4.62312">
        <ele>368</ele>
        <time>2017-09-24T16:30:40Z</time>
      </trkpt>
      <trkpt lat="45.92929" lon="4.62276">
        <ele>369</ele>
        <time>2017-09-24T16:30:49Z</time>
      </trkpt>
      <trkpt lat="45.92935" lon="4.62249">
        <ele>370</ele>
        <time>2017-09-24T16:31:09Z</time>
      </trkpt>
      <trkpt lat="45.9294" lon="4.62252">
        <ele>370</ele>
        <time>2017-09-24T16:31:11Z</time>
      </trkpt>
      <trkpt lat="45.92952" lon="4.62262">
        <ele>368</ele>
        <time>2017-09-24T16:31:15Z</time>
      </trkpt>
      <trkpt lat="45.9296" lon="4.62269">
        <ele>367</ele>
        <time>2017-09-24T16:31:18Z</time>
      </trkpt>
      <trkpt lat="45.92964" lon="4.62272">
        <ele>366</ele>
        <time>2017-09-24T16:31:19Z</time>
      </trkpt>
      <trkpt lat="45.92972" lon="4.62277">
        <ele>366</ele>
        <time>2017-09-24T16:31:21Z</time>
      </trkpt>
      <trkpt lat="45.92984" lon="4.62283">
        <ele>364</ele>
        <time>2017-09-24T16:31:24Z</time>
      </trkpt>
      <trkpt lat="45.92991" lon="4.62287">
        <ele>363</ele>
        <time>2017-09-24T16:31:26Z</time>
      </trkpt>
      <trkpt lat="45.92996" lon="4.6229">
        <ele>362</ele>
        <time>2017-09-24T16:31:28Z</time>
      </trkpt>
      <trkpt lat="45.93003" lon="4.62294">
        <ele>361</ele>
        <time>2017-09-24T16:31:31Z</time>
      </trkpt>
      <trkpt lat="45.93014" lon="4.62301">
        <ele>359</ele>
        <time>2017-09-24T16:31:34Z</time>
      </trkpt>
      <trkpt lat="45.93024" lon="4.62308">
        <ele>358</ele>
        <time>2017-09-24T16:31:36Z</time>
      </trkpt>
      <trkpt lat="45.93035" lon="4.62314">
        <ele>357</ele>
        <time>2017-09-24T16:31:38Z</time>
      </trkpt>
      <trkpt lat="45.93041" lon="4.62316">
        <ele>356</ele>
        <time>2017-09-24T16:31:39Z</time>
      </trkpt>
      <trkpt lat="45.93045" lon="4.62315">
        <ele>355</ele>
        <time>2017-09-24T16:31:40Z</time>
      </trkpt>
      <trkpt lat="45.93048" lon="4.62312">
        <ele>354</ele>
        <time>2017-09-24T16:31:41Z</time>
      </trkpt>
      <trkpt lat="45.9305" lon="4.62308">
        <ele>353</ele>
        <time>2017-09-24T16:31:42Z</time>
      </trkpt>
      <trkpt lat="45.93054" lon="4.62298">
        <ele>353</ele>
        <time>2017-09-24T16:31:47Z</time>
      </trkpt>
      <trkpt lat="45.93052" lon="4.62299">
        <ele>354</ele>
        <time>2017-09-24T16:32:06Z</time>
      </trkpt>
      <trkpt lat="45.93042" lon="4.62318">
        <ele>353</ele>
        <time>2017-09-24T16:32:12Z</time>
      </trkpt>
      <trkpt lat="45.93042" lon="4.62319">
        <ele>352</ele>
        <time>2017-09-24T16:32:14Z</time>
      </trkpt>
      <trkpt lat="45.93047" lon="4.6231">
        <ele>352</ele>
        <time>2017-09-24T16:32:40Z</time>
      </trkpt>
      <trkpt lat="45.93054" lon="4.62285">
        <ele>353</ele>
        <time>2017-09-24T16:32:48Z</time>
      </trkpt>
      <trkpt lat="45.93056" lon="4.62274">
        <ele>354</ele>
        <time>2017-09-24T16:32:53Z</time>
      </trkpt>
      <trkpt lat="45.93057" lon="4.62273">
        <ele>355</ele>
        <time>2017-09-24T16:33:18Z</time>
      </trkpt>
      <trkpt lat="45.93054" lon="4.62278">
        <ele>355</ele>
        <time>2017-09-24T16:33:34Z</time>
      </trkpt>
      <trkpt lat="45.93054" lon="4.62278">
        <ele>355</ele>
        <time>2017-09-24T16:33:43Z</time>
      </trkpt>
      <trkpt lat="45.93054" lon="4.62282">
        <ele>355</ele>
        <time>2017-09-24T16:33:50Z</time>
      </trkpt>
      <trkpt lat="45.93046" lon="4.62309">
        <ele>354</ele>
        <time>2017-09-24T16:33:56Z</time>
      </trkpt>
      <trkpt lat="45.93041" lon="4.62318">
        <ele>353</ele>
        <time>2017-09-24T16:33:59Z</time>
      </trkpt>
      <trkpt lat="45.93039" lon="4.62324">
        <ele>352</ele>
        <time>2017-09-24T16:34:06Z</time>
      </trkpt>
      <trkpt lat="45.93039" lon="4.62332">
        <ele>352</ele>
        <time>2017-09-24T16:34:17Z</time>
      </trkpt>
      <trkpt lat="45.93042" lon="4.62336">
        <ele>352</ele>
        <time>2017-09-24T16:34:19Z</time>
      </trkpt>
      <trkpt lat="45.93046" lon="4.6234">
        <ele>351</ele>
        <time>2017-09-24T16:34:21Z</time>
      </trkpt>
      <trkpt lat="45.93056" lon="4.6235">
        <ele>349</ele>
        <time>2017-09-24T16:34:24Z</time>
      </trkpt>
      <trkpt lat="45.93064" lon="4.62358">
        <ele>348</ele>
        <time>2017-09-24T16:34:26Z</time>
      </trkpt>
      <trkpt lat="45.93069" lon="4.62362">
        <ele>347</ele>
        <time>2017-09-24T16:34:27Z</time>
      </trkpt>
      <trkpt lat="45.93074" lon="4.62366">
        <ele>346</ele>
        <time>2017-09-24T16:34:28Z</time>
      </trkpt>
      <trkpt lat="45.93079" lon="4.6237">
        <ele>345</ele>
        <time>2017-09-24T16:34:29Z</time>
      </trkpt>
      <trkpt lat="45.93084" lon="4.62374">
        <ele>343</ele>
        <time>2017-09-24T16:34:30Z</time>
      </trkpt>
      <trkpt lat="45.93089" lon="4.62378">
        <ele>342</ele>
        <time>2017-09-24T16:34:31Z</time>
      </trkpt>
      <trkpt lat="45.93094" lon="4.62381">
        <ele>340</ele>
        <time>2017-09-24T16:34:32Z</time>
      </trkpt>
      <trkpt lat="45.93097" lon="4.62384">
        <ele>339</ele>
        <time>2017-09-24T16:34:33Z</time>
      </trkpt>
      <trkpt lat="45.931" lon="4.62385">
        <ele>337</ele>
        <time>2017-09-24T16:34:34Z</time>
      </trkpt>
      <trkpt lat="45.93103" lon="4.62387">
        <ele>336</ele>
        <time>2017-09-24T16:34:35Z</time>
      </trkpt>
      <trkpt lat="45.93105" lon="4.62389">
        <ele>335</ele>
        <time>2017-09-24T16:34:36Z</time>
      </trkpt>
      <trkpt lat="45.93106" lon="4.6239">
        <ele>334</ele>
        <time>2017-09-24T16:34:37Z</time>
      </trkpt>
      <trkpt lat="45.93106" lon="4.62391">
        <ele>332</ele>
        <time>2017-09-24T16:34:38Z</time>
      </trkpt>
      <trkpt lat="45.93107" lon="4.62392">
        <ele>331</ele>
        <time>2017-09-24T16:34:41Z</time>
      </trkpt>
      <trkpt lat="45.93114" lon="4.62402">
        <ele>331</ele>
        <time>2017-09-24T16:35:17Z</time>
      </trkpt>
      <trkpt lat="45.93123" lon="4.62408">
        <ele>330</ele>
        <time>2017-09-24T16:35:19Z</time>
      </trkpt>
      <trkpt lat="45.93137" lon="4.62414">
        <ele>329</ele>
        <time>2017-09-24T16:35:21Z</time>
      </trkpt>
      <trkpt lat="45.9315" lon="4.62426">
        <ele>326</ele>
        <time>2017-09-24T16:35:23Z</time>
      </trkpt>
      <trkpt lat="45.9316" lon="4.62443">
        <ele>325</ele>
        <time>2017-09-24T16:35:25Z</time>
      </trkpt>
      <trkpt lat="45.93167" lon="4.62459">
        <ele>324</ele>
        <time>2017-09-24T16:35:27Z</time>
      </trkpt>
      <trkpt lat="45.93177" lon="4.62469">
        <ele>324</ele>
        <time>2017-09-24T16:35:29Z</time>
      </trkpt>
      <trkpt lat="45.93182" lon="4.62472">
        <ele>324</ele>
        <time>2017-09-24T16:35:30Z</time>
      </trkpt>
      <trkpt lat="45.93198" lon="4.62479">
        <ele>324</ele>
        <time>2017-09-24T16:35:33Z</time>
      </trkpt>
      <trkpt lat="45.93219" lon="4.6249">
        <ele>325</ele>
        <time>2017-09-24T16:35:37Z</time>
      </trkpt>
      <trkpt lat="45.93233" lon="4.62497">
        <ele>326</ele>
        <time>2017-09-24T16:35:40Z</time>
      </trkpt>
      <trkpt lat="45.93242" lon="4.62496">
        <ele>327</ele>
        <time>2017-09-24T16:35:42Z</time>
      </trkpt>
      <trkpt lat="45.93246" lon="4.62495">
        <ele>327</ele>
        <time>2017-09-24T16:35:43Z</time>
      </trkpt>
      <trkpt lat="45.93258" lon="4.62491">
        <ele>328</ele>
        <time>2017-09-24T16:35:47Z</time>
      </trkpt>
      <trkpt lat="45.93274" lon="4.62486">
        <ele>329</ele>
        <time>2017-09-24T16:35:52Z</time>
      </trkpt>
      <trkpt lat="45.93292" lon="4.62479">
        <ele>330</ele>
        <time>2017-09-24T16:35:58Z</time>
      </trkpt>
      <trkpt lat="45.93311" lon="4.62471">
        <ele>332</ele>
        <time>2017-09-24T16:36:04Z</time>
      </trkpt>
      <trkpt lat="45.93326" lon="4.62465">
        <ele>333</ele>
        <time>2017-09-24T16:36:09Z</time>
      </trkpt>
      <trkpt lat="45.93348" lon="4.62463">
        <ele>334</ele>
        <time>2017-09-24T16:36:16Z</time>
      </trkpt>
      <trkpt lat="45.93363" lon="4.62462">
        <ele>335</ele>
        <time>2017-09-24T16:36:21Z</time>
      </trkpt>
      <trkpt lat="45.93381" lon="4.62463">
        <ele>336</ele>
        <time>2017-09-24T16:36:27Z</time>
      </trkpt>
      <trkpt lat="45.93396" lon="4.62466">
        <ele>337</ele>
        <time>2017-09-24T16:36:33Z</time>
      </trkpt>
      <trkpt lat="45.93406" lon="4.62468">
        <ele>338</ele>
        <time>2017-09-24T16:36:37Z</time>
      </trkpt>
      <trkpt lat="45.93419" lon="4.6247">
        <ele>339</ele>
        <time>2017-09-24T16:36:42Z</time>
      </trkpt>
      <trkpt lat="45.93435" lon="4.62469">
        <ele>340</ele>
        <time>2017-09-24T16:36:48Z</time>
      </trkpt>
      <trkpt lat="45.93453" lon="4.62464">
        <ele>342</ele>
        <time>2017-09-24T16:36:55Z</time>
      </trkpt>
      <trkpt lat="45.93464" lon="4.62458">
        <ele>343</ele>
        <time>2017-09-24T16:37:00Z</time>
      </trkpt>
      <trkpt lat="45.93473" lon="4.62451">
        <ele>344</ele>
        <time>2017-09-24T16:37:04Z</time>
      </trkpt>
      <trkpt lat="45.93475" lon="4.62449">
        <ele>344</ele>
        <time>2017-09-24T16:37:05Z</time>
      </trkpt>
      <trkpt lat="45.93487" lon="4.6244">
        <ele>345</ele>
        <time>2017-09-24T16:37:10Z</time>
      </trkpt>
      <trkpt lat="45.93499" lon="4.6243">
        <ele>346</ele>
        <time>2017-09-24T16:37:16Z</time>
      </trkpt>
      <trkpt lat="45.93513" lon="4.62421">
        <ele>347</ele>
        <time>2017-09-24T16:37:23Z</time>
      </trkpt>
      <trkpt lat="45.93525" lon="4.62417">
        <ele>348</ele>
        <time>2017-09-24T16:37:28Z</time>
      </trkpt>
      <trkpt lat="45.93539" lon="4.62412">
        <ele>349</ele>
        <time>2017-09-24T16:37:34Z</time>
      </trkpt>
      <trkpt lat="45.93551" lon="4.62408">
        <ele>350</ele>
        <time>2017-09-24T16:37:39Z</time>
      </trkpt>
      <trkpt lat="45.93565" lon="4.62403">
        <ele>351</ele>
        <time>2017-09-24T16:37:45Z</time>
      </trkpt>
      <trkpt lat="45.93577" lon="4.62398">
        <ele>352</ele>
        <time>2017-09-24T16:37:50Z</time>
      </trkpt>
      <trkpt lat="45.93592" lon="4.6239">
        <ele>353</ele>
        <time>2017-09-24T16:37:57Z</time>
      </trkpt>
      <trkpt lat="45.93604" lon="4.62384">
        <ele>354</ele>
        <time>2017-09-24T16:38:03Z</time>
      </trkpt>
      <trkpt lat="45.93621" lon="4.62374">
        <ele>355</ele>
        <time>2017-09-24T16:38:12Z</time>
      </trkpt>
      <trkpt lat="45.93631" lon="4.62367">
        <ele>357</ele>
        <time>2017-09-24T16:38:17Z</time>
      </trkpt>
      <trkpt lat="45.93644" lon="4.6236">
        <ele>358</ele>
        <time>2017-09-24T16:38:23Z</time>
      </trkpt>
      <trkpt lat="45.93653" lon="4.62353">
        <ele>359</ele>
        <time>2017-09-24T16:38:28Z</time>
      </trkpt>
      <trkpt lat="45.93663" lon="4.62347">
        <ele>360</ele>
        <time>2017-09-24T16:38:34Z</time>
      </trkpt>
      <trkpt lat="45.93672" lon="4.62341">
        <ele>361</ele>
        <time>2017-09-24T16:38:40Z</time>
      </trkpt>
      <trkpt lat="45.93683" lon="4.62336">
        <ele>362</ele>
        <time>2017-09-24T16:38:46Z</time>
      </trkpt>
      <trkpt lat="45.93695" lon="4.62337">
        <ele>363</ele>
        <time>2017-09-24T16:38:52Z</time>
      </trkpt>
      <trkpt lat="45.93711" lon="4.62349">
        <ele>364</ele>
        <time>2017-09-24T16:38:59Z</time>
      </trkpt>
      <trkpt lat="45.93721" lon="4.62359">
        <ele>365</ele>
        <time>2017-09-24T16:39:04Z</time>
      </trkpt>
      <trkpt lat="45.93732" lon="4.6237">
        <ele>367</ele>
        <time>2017-09-24T16:39:10Z</time>
      </trkpt>
      <trkpt lat="45.93742" lon="4.62377">
        <ele>368</ele>
        <time>2017-09-24T16:39:15Z</time>
      </trkpt>
      <trkpt lat="45.93755" lon="4.62385">
        <ele>369</ele>
        <time>2017-09-24T16:39:21Z</time>
      </trkpt>
      <trkpt lat="45.93773" lon="4.62401">
        <ele>370</ele>
        <time>2017-09-24T16:39:29Z</time>
      </trkpt>
      <trkpt lat="45.93788" lon="4.62409">
        <ele>371</ele>
        <time>2017-09-24T16:39:35Z</time>
      </trkpt>
      <trkpt lat="45.93802" lon="4.62416">
        <ele>372</ele>
        <time>2017-09-24T16:39:41Z</time>
      </trkpt>
      <trkpt lat="45.93819" lon="4.62421">
        <ele>373</ele>
        <time>2017-09-24T16:39:48Z</time>
      </trkpt>
      <trkpt lat="45.93833" lon="4.62425">
        <ele>374</ele>
        <time>2017-09-24T16:39:54Z</time>
      </trkpt>
      <trkpt lat="45.93847" lon="4.62429">
        <ele>375</ele>
        <time>2017-09-24T16:40:01Z</time>
      </trkpt>
      <trkpt lat="45.93866" lon="4.62432">
        <ele>376</ele>
        <time>2017-09-24T16:40:10Z</time>
      </trkpt>
      <trkpt lat="45.93886" lon="4.62409">
        <ele>377</ele>
        <time>2017-09-24T16:40:22Z</time>
      </trkpt>
      <trkpt lat="45.93893" lon="4.6239">
        <ele>379</ele>
        <time>2017-09-24T16:40:28Z</time>
      </trkpt>
      <trkpt lat="45.93899" lon="4.62373">
        <ele>380</ele>
        <time>2017-09-24T16:40:34Z</time>
      </trkpt>
      <trkpt lat="45.93904" lon="4.62355">
        <ele>381</ele>
        <time>2017-09-24T16:40:40Z</time>
      </trkpt>
      <trkpt lat="45.93909" lon="4.62334">
        <ele>382</ele>
        <time>2017-09-24T16:40:47Z</time>
      </trkpt>
      <trkpt lat="45.93907" lon="4.62316">
        <ele>383</ele>
        <time>2017-09-24T16:40:53Z</time>
      </trkpt>
      <trkpt lat="45.93906" lon="4.62314">
        <ele>383</ele>
        <time>2017-09-24T16:40:54Z</time>
      </trkpt>
      <trkpt lat="45.93899" lon="4.62301">
        <ele>384</ele>
        <time>2017-09-24T16:40:59Z</time>
      </trkpt>
      <trkpt lat="45.9389" lon="4.62289">
        <ele>385</ele>
        <time>2017-09-24T16:41:05Z</time>
      </trkpt>
      <trkpt lat="45.93878" lon="4.62275">
        <ele>386</ele>
        <time>2017-09-24T16:41:12Z</time>
      </trkpt>
      <trkpt lat="45.93871" lon="4.62265">
        <ele>387</ele>
        <time>2017-09-24T16:41:17Z</time>
      </trkpt>
      <trkpt lat="45.93861" lon="4.62255">
        <ele>388</ele>
        <time>2017-09-24T16:41:23Z</time>
      </trkpt>
      <trkpt lat="45.93849" lon="4.62242">
        <ele>389</ele>
        <time>2017-09-24T16:41:30Z</time>
      </trkpt>
      <trkpt lat="45.93838" lon="4.62223">
        <ele>391</ele>
        <time>2017-09-24T16:41:38Z</time>
      </trkpt>
      <trkpt lat="45.9383" lon="4.62213">
        <ele>392</ele>
        <time>2017-09-24T16:41:44Z</time>
      </trkpt>
      <trkpt lat="45.9381" lon="4.62186">
        <ele>393</ele>
        <time>2017-09-24T16:41:58Z</time>
      </trkpt>
      <trkpt lat="45.93809" lon="4.62175">
        <ele>394</ele>
        <time>2017-09-24T16:42:03Z</time>
      </trkpt>
      <trkpt lat="45.93808" lon="4.62166">
        <ele>395</ele>
        <time>2017-09-24T16:42:07Z</time>
      </trkpt>
      <trkpt lat="45.93805" lon="4.62158">
        <ele>396</ele>
        <time>2017-09-24T16:42:12Z</time>
      </trkpt>
      <trkpt lat="45.93803" lon="4.6215">
        <ele>397</ele>
        <time>2017-09-24T16:42:16Z</time>
      </trkpt>
      <trkpt lat="45.93803" lon="4.6214">
        <ele>398</ele>
        <time>2017-09-24T16:42:22Z</time>
      </trkpt>
      <trkpt lat="45.93808" lon="4.62126">
        <ele>399</ele>
        <time>2017-09-24T16:42:31Z</time>
      </trkpt>
      <trkpt lat="45.9381" lon="4.62119">
        <ele>400</ele>
        <time>2017-09-24T16:42:36Z</time>
      </trkpt>
      <trkpt lat="45.93813" lon="4.62111">
        <ele>402</ele>
        <time>2017-09-24T16:42:42Z</time>
      </trkpt>
      <trkpt lat="45.93814" lon="4.62104">
        <ele>403</ele>
        <time>2017-09-24T16:42:48Z</time>
      </trkpt>
      <trkpt lat="45.93818" lon="4.62093">
        <ele>404</ele>
        <time>2017-09-24T16:42:55Z</time>
      </trkpt>
      <trkpt lat="45.9382" lon="4.62088">
        <ele>405</ele>
        <time>2017-09-24T16:42:59Z</time>
      </trkpt>
      <trkpt lat="45.93822" lon="4.62076">
        <ele>406</ele>
        <time>2017-09-24T16:43:06Z</time>
      </trkpt>
      <trkpt lat="45.93825" lon="4.62067">
        <ele>407</ele>
        <time>2017-09-24T16:43:12Z</time>
      </trkpt>
      <trkpt lat="45.93827" lon="4.62058">
        <ele>408</ele>
        <time>2017-09-24T16:43:18Z</time>
      </trkpt>
      <trkpt lat="45.93829" lon="4.62049">
        <ele>409</ele>
        <time>2017-09-24T16:43:24Z</time>
      </trkpt>
      <trkpt lat="45.93831" lon="4.62041">
        <ele>410</ele>
        <time>2017-09-24T16:43:30Z</time>
      </trkpt>
      <trkpt lat="45.93834" lon="4.62031">
        <ele>411</ele>
        <time>2017-09-24T16:43:37Z</time>
      </trkpt>
      <trkpt lat="45.93837" lon="4.62025">
        <ele>413</ele>
        <time>2017-09-24T16:43:42Z</time>
      </trkpt>
      <trkpt lat="45.93839" lon="4.62017">
        <ele>414</ele>
        <time>2017-09-24T16:43:48Z</time>
      </trkpt>
      <trkpt lat="45.93841" lon="4.6201">
        <ele>415</ele>
        <time>2017-09-24T16:43:54Z</time>
      </trkpt>
      <trkpt lat="45.93843" lon="4.62003">
        <ele>416</ele>
        <time>2017-09-24T16:44:01Z</time>
      </trkpt>
      <trkpt lat="45.93843" lon="4.62001">
        <ele>417</ele>
        <time>2017-09-24T16:44:13Z</time>
      </trkpt>
      <trkpt lat="45.93847" lon="4.61988">
        <ele>418</ele>
        <time>2017-09-24T16:44:30Z</time>
      </trkpt>
      <trkpt lat="45.9385" lon="4.6198">
        <ele>419</ele>
        <time>2017-09-24T16:44:36Z</time>
      </trkpt>
      <trkpt lat="45.93852" lon="4.61974">
        <ele>420</ele>
        <time>2017-09-24T16:44:42Z</time>
      </trkpt>
      <trkpt lat="45.93855" lon="4.61968">
        <ele>422</ele>
        <time>2017-09-24T16:44:47Z</time>
      </trkpt>
      <trkpt lat="45.93859" lon="4.6196">
        <ele>423</ele>
        <time>2017-09-24T16:45:37Z</time>
      </trkpt>
      <trkpt lat="45.93871" lon="4.61953">
        <ele>424</ele>
        <time>2017-09-24T16:45:45Z</time>
      </trkpt>
      <trkpt lat="45.93883" lon="4.61946">
        <ele>425</ele>
        <time>2017-09-24T16:45:53Z</time>
      </trkpt>
      <trkpt lat="45.93891" lon="4.6194">
        <ele>426</ele>
        <time>2017-09-24T16:45:58Z</time>
      </trkpt>
      <trkpt lat="45.93895" lon="4.61933">
        <ele>427</ele>
        <time>2017-09-24T16:46:02Z</time>
      </trkpt>
      <trkpt lat="45.93899" lon="4.61925">
        <ele>428</ele>
        <time>2017-09-24T16:46:06Z</time>
      </trkpt>
      <trkpt lat="45.93903" lon="4.61914">
        <ele>429</ele>
        <time>2017-09-24T16:46:11Z</time>
      </trkpt>
      <trkpt lat="45.93906" lon="4.61906">
        <ele>430</ele>
        <time>2017-09-24T16:46:15Z</time>
      </trkpt>
      <trkpt lat="45.93909" lon="4.61898">
        <ele>432</ele>
        <time>2017-09-24T16:46:19Z</time>
      </trkpt>
      <trkpt lat="45.93909" lon="4.61886">
        <ele>433</ele>
        <time>2017-09-24T16:46:24Z</time>
      </trkpt>
      <trkpt lat="45.93909" lon="4.61874">
        <ele>434</ele>
        <time>2017-09-24T16:46:29Z</time>
      </trkpt>
      <trkpt lat="45.93907" lon="4.61865">
        <ele>435</ele>
        <time>2017-09-24T16:46:33Z</time>
      </trkpt>
      <trkpt lat="45.93905" lon="4.61854">
        <ele>436</ele>
        <time>2017-09-24T16:46:38Z</time>
      </trkpt>
      <trkpt lat="45.93905" lon="4.61846">
        <ele>437</ele>
        <time>2017-09-24T16:46:44Z</time>
      </trkpt>
      <trkpt lat="45.93908" lon="4.61844">
        <ele>438</ele>
        <time>2017-09-24T16:46:54Z</time>
      </trkpt>
      <trkpt lat="45.93909" lon="4.61838">
        <ele>438</ele>
        <time>2017-09-24T16:46:57Z</time>
      </trkpt>
      <trkpt lat="45.9391" lon="4.61827">
        <ele>438</ele>
        <time>2017-09-24T16:47:01Z</time>
      </trkpt>
      <trkpt lat="45.93909" lon="4.61809">
        <ele>439</ele>
        <time>2017-09-24T16:47:08Z</time>
      </trkpt>
      <trkpt lat="45.93908" lon="4.61795">
        <ele>440</ele>
        <time>2017-09-24T16:47:13Z</time>
      </trkpt>
      <trkpt lat="45.9391" lon="4.61784">
        <ele>442</ele>
        <time>2017-09-24T16:47:17Z</time>
      </trkpt>
      <trkpt lat="45.93912" lon="4.61773">
        <ele>443</ele>
        <time>2017-09-24T16:47:21Z</time>
      </trkpt>
      <trkpt lat="45.93916" lon="4.61762">
        <ele>444</ele>
        <time>2017-09-24T16:47:26Z</time>
      </trkpt>
      <trkpt lat="45.93917" lon="4.61748">
        <ele>445</ele>
        <time>2017-09-24T16:47:31Z</time>
      </trkpt>
      <trkpt lat="45.93919" lon="4.61734">
        <ele>446</ele>
        <time>2017-09-24T16:47:36Z</time>
      </trkpt>
      <trkpt lat="45.93919" lon="4.61717">
        <ele>447</ele>
        <time>2017-09-24T16:47:42Z</time>
      </trkpt>
      <trkpt lat="45.93921" lon="4.61703">
        <ele>448</ele>
        <time>2017-09-24T16:47:48Z</time>
      </trkpt>
      <trkpt lat="45.93924" lon="4.61698">
        <ele>449</ele>
        <time>2017-09-24T16:47:51Z</time>
      </trkpt>
      <trkpt lat="45.93925" lon="4.61695">
        <ele>449</ele>
        <time>2017-09-24T16:47:53Z</time>
      </trkpt>
      <trkpt lat="45.93931" lon="4.6168">
        <ele>450</ele>
        <time>2017-09-24T16:48:00Z</time>
      </trkpt>
      <trkpt lat="45.93938" lon="4.61666">
        <ele>451</ele>
        <time>2017-09-24T16:48:07Z</time>
      </trkpt>
      <trkpt lat="45.93944" lon="4.61653">
        <ele>453</ele>
        <time>2017-09-24T16:48:14Z</time>
      </trkpt>
      <trkpt lat="45.93945" lon="4.61649">
        <ele>453</ele>
        <time>2017-09-24T16:48:18Z</time>
      </trkpt>
      <trkpt lat="45.93949" lon="4.6164">
        <ele>454</ele>
        <time>2017-09-24T16:48:22Z</time>
      </trkpt>
      <trkpt lat="45.93954" lon="4.61634">
        <ele>454</ele>
        <time>2017-09-24T16:48:26Z</time>
      </trkpt>
      <trkpt lat="45.93958" lon="4.61633">
        <ele>454</ele>
        <time>2017-09-24T16:48:29Z</time>
      </trkpt>
      <trkpt lat="45.93959" lon="4.61634">
        <ele>455</ele>
        <time>2017-09-24T16:48:31Z</time>
      </trkpt>
      <trkpt lat="45.93962" lon="4.61632">
        <ele>455</ele>
        <time>2017-09-24T16:48:46Z</time>
      </trkpt>
      <trkpt lat="45.93966" lon="4.61636">
        <ele>455</ele>
        <time>2017-09-24T16:48:50Z</time>
      </trkpt>
      <trkpt lat="45.93972" lon="4.61646">
        <ele>456</ele>
        <time>2017-09-24T16:48:58Z</time>
      </trkpt>
      <trkpt lat="45.93976" lon="4.6165">
        <ele>456</ele>
        <time>2017-09-24T16:49:02Z</time>
      </trkpt>
      <trkpt lat="45.9398" lon="4.61655">
        <ele>457</ele>
        <time>2017-09-24T16:49:06Z</time>
      </trkpt>
      <trkpt lat="45.93985" lon="4.61664">
        <ele>458</ele>
        <time>2017-09-24T16:49:12Z</time>
      </trkpt>
      <trkpt lat="45.93986" lon="4.61666">
        <ele>459</ele>
        <time>2017-09-24T16:49:14Z</time>
      </trkpt>
      <trkpt lat="45.93987" lon="4.6167">
        <ele>459</ele>
        <time>2017-09-24T16:49:16Z</time>
      </trkpt>
      <trkpt lat="45.93989" lon="4.61673">
        <ele>459</ele>
        <time>2017-09-24T16:49:18Z</time>
      </trkpt>
      <trkpt lat="45.93998" lon="4.6169">
        <ele>460</ele>
        <time>2017-09-24T16:49:26Z</time>
      </trkpt>
      <trkpt lat="45.94006" lon="4.61705">
        <ele>461</ele>
        <time>2017-09-24T16:49:33Z</time>
      </trkpt>
      <trkpt lat="45.94015" lon="4.61719">
        <ele>462</ele>
        <time>2017-09-24T16:49:40Z</time>
      </trkpt>
      <trkpt lat="45.94034" lon="4.61743">
        <ele>464</ele>
        <time>2017-09-24T16:49:52Z</time>
      </trkpt>
      <trkpt lat="45.94044" lon="4.61759">
        <ele>465</ele>
        <time>2017-09-24T16:50:02Z</time>
      </trkpt>
      <trkpt lat="45.94048" lon="4.61764">
        <ele>465</ele>
        <time>2017-09-24T16:50:08Z</time>
      </trkpt>
      <trkpt lat="45.94047" lon="4.61767">
        <ele>465</ele>
        <time>2017-09-24T16:50:11Z</time>
      </trkpt>
      <trkpt lat="45.94045" lon="4.61767">
        <ele>465</ele>
        <time>2017-09-24T16:50:13Z</time>
      </trkpt>
      <trkpt lat="45.94046" lon="4.6177">
        <ele>465</ele>
        <time>2017-09-24T16:50:43Z</time>
      </trkpt>
      <trkpt lat="45.94046" lon="4.6177">
        <ele>465</ele>
        <time>2017-09-24T16:51:00Z</time>
      </trkpt>
      <trkpt lat="45.94047" lon="4.6177">
        <ele>464</ele>
        <time>2017-09-24T16:51:06Z</time>
      </trkpt>
      <trkpt lat="45.94074" lon="4.61753">
        <ele>466</ele>
        <time>2017-09-24T16:51:22Z</time>
      </trkpt>
      <trkpt lat="45.94083" lon="4.61753">
        <ele>466</ele>
        <time>2017-09-24T16:51:27Z</time>
      </trkpt>
      <trkpt lat="45.94087" lon="4.61753">
        <ele>466</ele>
        <time>2017-09-24T16:51:30Z</time>
      </trkpt>
      <trkpt lat="45.94089" lon="4.61731">
        <ele>467</ele>
        <time>2017-09-24T16:51:37Z</time>
      </trkpt>
      <trkpt lat="45.94087" lon="4.61724">
        <ele>468</ele>
        <time>2017-09-24T16:51:41Z</time>
      </trkpt>
      <trkpt lat="45.94084" lon="4.61724">
        <ele>468</ele>
        <time>2017-09-24T16:51:43Z</time>
      </trkpt>
      <trkpt lat="45.94076" lon="4.61719">
        <ele>469</ele>
        <time>2017-09-24T16:52:12Z</time>
      </trkpt>
      <trkpt lat="45.94077" lon="4.61718">
        <ele>469</ele>
        <time>2017-09-24T16:52:14Z</time>
      </trkpt>
      <trkpt lat="45.9408" lon="4.61718">
        <ele>469</ele>
        <time>2017-09-24T16:52:17Z</time>
      </trkpt>
      <trkpt lat="45.94083" lon="4.6172">
        <ele>469</ele>
        <time>2017-09-24T16:52:20Z</time>
      </trkpt>
      <trkpt lat="45.94088" lon="4.61731">
        <ele>468</ele>
        <time>2017-09-24T16:52:26Z</time>
      </trkpt>
      <trkpt lat="45.94086" lon="4.61746">
        <ele>467</ele>
        <time>2017-09-24T16:52:31Z</time>
      </trkpt>
      <trkpt lat="45.94084" lon="4.61748">
        <ele>467</ele>
        <time>2017-09-24T16:52:32Z</time>
      </trkpt>
      <trkpt lat="45.94053" lon="4.61761">
        <ele>466</ele>
        <time>2017-09-24T16:52:44Z</time>
      </trkpt>
      <trkpt lat="45.94052" lon="4.6177">
        <ele>465</ele>
        <time>2017-09-24T16:52:46Z</time>
      </trkpt>
      <trkpt lat="45.94061" lon="4.61781">
        <ele>465</ele>
        <time>2017-09-24T16:52:49Z</time>
      </trkpt>
      <trkpt lat="45.94073" lon="4.61791">
        <ele>463</ele>
        <time>2017-09-24T16:52:52Z</time>
      </trkpt>
      <trkpt lat="45.94082" lon="4.61798">
        <ele>463</ele>
        <time>2017-09-24T16:52:54Z</time>
      </trkpt>
      <trkpt lat="45.94086" lon="4.61801">
        <ele>462</ele>
        <time>2017-09-24T16:52:55Z</time>
      </trkpt>
      <trkpt lat="45.94091" lon="4.61803">
        <ele>462</ele>
        <time>2017-09-24T16:52:56Z</time>
      </trkpt>
      <trkpt lat="45.94096" lon="4.61807">
        <ele>462</ele>
        <time>2017-09-24T16:52:57Z</time>
      </trkpt>
      <trkpt lat="45.94104" lon="4.61816">
        <ele>461</ele>
        <time>2017-09-24T16:52:59Z</time>
      </trkpt>
      <trkpt lat="45.94116" lon="4.61828">
        <ele>460</ele>
        <time>2017-09-24T16:53:02Z</time>
      </trkpt>
      <trkpt lat="45.94126" lon="4.61836">
        <ele>458</ele>
        <time>2017-09-24T16:53:04Z</time>
      </trkpt>
      <trkpt lat="45.94131" lon="4.6184">
        <ele>458</ele>
        <time>2017-09-24T16:53:05Z</time>
      </trkpt>
      <trkpt lat="45.94137" lon="4.61843">
        <ele>457</ele>
        <time>2017-09-24T16:53:06Z</time>
      </trkpt>
      <trkpt lat="45.94144" lon="4.61845">
        <ele>456</ele>
        <time>2017-09-24T16:53:07Z</time>
      </trkpt>
      <trkpt lat="45.9415" lon="4.61847">
        <ele>455</ele>
        <time>2017-09-24T16:53:08Z</time>
      </trkpt>
      <trkpt lat="45.94164" lon="4.61851">
        <ele>454</ele>
        <time>2017-09-24T16:53:10Z</time>
      </trkpt>
      <trkpt lat="45.94177" lon="4.61855">
        <ele>453</ele>
        <time>2017-09-24T16:53:12Z</time>
      </trkpt>
      <trkpt lat="45.94197" lon="4.61864">
        <ele>452</ele>
        <time>2017-09-24T16:53:15Z</time>
      </trkpt>
      <trkpt lat="45.94209" lon="4.61871">
        <ele>450</ele>
        <time>2017-09-24T16:53:17Z</time>
      </trkpt>
      <trkpt lat="45.94215" lon="4.61882">
        <ele>449</ele>
        <time>2017-09-24T16:53:19Z</time>
      </trkpt>
      <trkpt lat="45.94217" lon="4.61887">
        <ele>448</ele>
        <time>2017-09-24T16:53:21Z</time>
      </trkpt>
      <trkpt lat="45.94217" lon="4.61887">
        <ele>447</ele>
        <time>2017-09-24T16:53:23Z</time>
      </trkpt>
      <trkpt lat="45.94216" lon="4.61888">
        <ele>446</ele>
        <time>2017-09-24T16:53:28Z</time>
      </trkpt>
      <trkpt lat="45.94218" lon="4.61903">
        <ele>446</ele>
        <time>2017-09-24T16:53:31Z</time>
      </trkpt>
      <trkpt lat="45.94218" lon="4.61909">
        <ele>445</ele>
        <time>2017-09-24T16:53:32Z</time>
      </trkpt>
      <trkpt lat="45.94221" lon="4.61925">
        <ele>445</ele>
        <time>2017-09-24T16:53:34Z</time>
      </trkpt>
      <trkpt lat="45.94223" lon="4.61933">
        <ele>444</ele>
        <time>2017-09-24T16:53:35Z</time>
      </trkpt>
      <trkpt lat="45.94226" lon="4.61941">
        <ele>443</ele>
        <time>2017-09-24T16:53:36Z</time>
      </trkpt>
      <trkpt lat="45.94231" lon="4.61948">
        <ele>442</ele>
        <time>2017-09-24T16:53:37Z</time>
      </trkpt>
      <trkpt lat="45.94236" lon="4.61955">
        <ele>441</ele>
        <time>2017-09-24T16:53:38Z</time>
      </trkpt>
      <trkpt lat="45.94247" lon="4.61968">
        <ele>439</ele>
        <time>2017-09-24T16:53:40Z</time>
      </trkpt>
      <trkpt lat="45.94258" lon="4.61979">
        <ele>438</ele>
        <time>2017-09-24T16:53:42Z</time>
      </trkpt>
      <trkpt lat="45.94262" lon="4.61984">
        <ele>438</ele>
        <time>2017-09-24T16:53:43Z</time>
      </trkpt>
      <trkpt lat="45.94265" lon="4.61988">
        <ele>437</ele>
        <time>2017-09-24T16:53:44Z</time>
      </trkpt>
      <trkpt lat="45.94267" lon="4.6199">
        <ele>436</ele>
        <time>2017-09-24T16:53:46Z</time>
      </trkpt>
      <trkpt lat="45.94267" lon="4.61989">
        <ele>435</ele>
        <time>2017-09-24T16:53:49Z</time>
      </trkpt>
      <trkpt lat="45.94268" lon="4.61991">
        <ele>435</ele>
        <time>2017-09-24T16:54:05Z</time>
      </trkpt>
      <trkpt lat="45.94272" lon="4.61998">
        <ele>434</ele>
        <time>2017-09-24T16:54:07Z</time>
      </trkpt>
      <trkpt lat="45.9428" lon="4.62006">
        <ele>434</ele>
        <time>2017-09-24T16:54:09Z</time>
      </trkpt>
      <trkpt lat="45.9429" lon="4.62016">
        <ele>433</ele>
        <time>2017-09-24T16:54:11Z</time>
      </trkpt>
      <trkpt lat="45.94296" lon="4.62021">
        <ele>432</ele>
        <time>2017-09-24T16:54:12Z</time>
      </trkpt>
      <trkpt lat="45.94302" lon="4.62025">
        <ele>431</ele>
        <time>2017-09-24T16:54:13Z</time>
      </trkpt>
      <trkpt lat="45.94316" lon="4.62036">
        <ele>430</ele>
        <time>2017-09-24T16:54:15Z</time>
      </trkpt>
      <trkpt lat="45.94327" lon="4.62048">
        <ele>428</ele>
        <time>2017-09-24T16:54:17Z</time>
      </trkpt>
      <trkpt lat="45.94339" lon="4.62062">
        <ele>426</ele>
        <time>2017-09-24T16:54:19Z</time>
      </trkpt>
      <trkpt lat="45.94351" lon="4.62074">
        <ele>424</ele>
        <time>2017-09-24T16:54:21Z</time>
      </trkpt>
      <trkpt lat="45.94365" lon="4.62082">
        <ele>422</ele>
        <time>2017-09-24T16:54:23Z</time>
      </trkpt>
      <trkpt lat="45.94381" lon="4.62086">
        <ele>421</ele>
        <time>2017-09-24T16:54:25Z</time>
      </trkpt>
      <trkpt lat="45.94396" lon="4.62088">
        <ele>420</ele>
        <time>2017-09-24T16:54:27Z</time>
      </trkpt>
      <trkpt lat="45.94411" lon="4.62092">
        <ele>419</ele>
        <time>2017-09-24T16:54:29Z</time>
      </trkpt>
      <trkpt lat="45.94425" lon="4.62097">
        <ele>417</ele>
        <time>2017-09-24T16:54:31Z</time>
      </trkpt>
      <trkpt lat="45.94435" lon="4.62103">
        <ele>416</ele>
        <time>2017-09-24T16:54:33Z</time>
      </trkpt>
      <trkpt lat="45.94444" lon="4.62114">
        <ele>415</ele>
        <time>2017-09-24T16:54:35Z</time>
      </trkpt>
      <trkpt lat="45.94447" lon="4.62121">
        <ele>415</ele>
        <time>2017-09-24T16:54:36Z</time>
      </trkpt>
      <trkpt lat="45.94453" lon="4.62134">
        <ele>413</ele>
        <time>2017-09-24T16:54:38Z</time>
      </trkpt>
      <trkpt lat="45.94456" lon="4.62141">
        <ele>412</ele>
        <time>2017-09-24T16:54:40Z</time>
      </trkpt>
      <trkpt lat="45.94458" lon="4.62146">
        <ele>411</ele>
        <time>2017-09-24T16:54:42Z</time>
      </trkpt>
      <trkpt lat="45.9446" lon="4.62152">
        <ele>410</ele>
        <time>2017-09-24T16:54:46Z</time>
      </trkpt>
      <trkpt lat="45.9446" lon="4.62154">
        <ele>409</ele>
        <time>2017-09-24T16:55:17Z</time>
      </trkpt>
      <trkpt lat="45.94459" lon="4.62158">
        <ele>409</ele>
        <time>2017-09-24T16:55:19Z</time>
      </trkpt>
      <trkpt lat="45.94456" lon="4.6216">
        <ele>409</ele>
        <time>2017-09-24T16:55:20Z</time>
      </trkpt>
      <trkpt lat="45.94406" lon="4.62169">
        <ele>408</ele>
        <time>2017-09-24T16:55:32Z</time>
      </trkpt>
      <trkpt lat="45.94374" lon="4.62175">
        <ele>408</ele>
        <time>2017-09-24T16:55:41Z</time>
      </trkpt>
      <trkpt lat="45.94353" lon="4.6218">
        <ele>408</ele>
        <time>2017-09-24T16:55:50Z</time>
      </trkpt>
      <trkpt lat="45.94353" lon="4.62188">
        <ele>408</ele>
        <time>2017-09-24T16:55:52Z</time>
      </trkpt>
      <trkpt lat="45.94367" lon="4.62201">
        <ele>407</ele>
        <time>2017-09-24T16:55:56Z</time>
      </trkpt>
      <trkpt lat="45.94375" lon="4.62206">
        <ele>407</ele>
        <time>2017-09-24T16:55:58Z</time>
      </trkpt>
      <trkpt lat="45.9439" lon="4.62218">
        <ele>405</ele>
        <time>2017-09-24T16:56:02Z</time>
      </trkpt>
      <trkpt lat="45.94394" lon="4.62222">
        <ele>405</ele>
        <time>2017-09-24T16:56:03Z</time>
      </trkpt>
      <trkpt lat="45.94418" lon="4.62241">
        <ele>405</ele>
        <time>2017-09-24T16:56:10Z</time>
      </trkpt>
      <trkpt lat="45.94426" lon="4.62245">
        <ele>404</ele>
        <time>2017-09-24T16:56:12Z</time>
      </trkpt>
      <trkpt lat="45.94453" lon="4.62259">
        <ele>404</ele>
        <time>2017-09-24T16:56:20Z</time>
      </trkpt>
      <trkpt lat="45.94455" lon="4.6227">
        <ele>403</ele>
        <time>2017-09-24T16:56:22Z</time>
      </trkpt>
      <trkpt lat="45.94452" lon="4.62276">
        <ele>403</ele>
        <time>2017-09-24T16:56:23Z</time>
      </trkpt>
      <trkpt lat="45.94428" lon="4.62291">
        <ele>402</ele>
        <time>2017-09-24T16:56:28Z</time>
      </trkpt>
      <trkpt lat="45.94399" lon="4.62306">
        <ele>401</ele>
        <time>2017-09-24T16:56:33Z</time>
      </trkpt>
      <trkpt lat="45.94379" lon="4.62315">
        <ele>399</ele>
        <time>2017-09-24T16:56:36Z</time>
      </trkpt>
      <trkpt lat="45.94356" lon="4.62325">
        <ele>398</ele>
        <time>2017-09-24T16:56:39Z</time>
      </trkpt>
      <trkpt lat="45.94339" lon="4.62331">
        <ele>397</ele>
        <time>2017-09-24T16:56:41Z</time>
      </trkpt>
      <trkpt lat="45.94321" lon="4.62336">
        <ele>396</ele>
        <time>2017-09-24T16:56:43Z</time>
      </trkpt>
      <trkpt lat="45.94303" lon="4.62343">
        <ele>395</ele>
        <time>2017-09-24T16:56:45Z</time>
      </trkpt>
      <trkpt lat="45.94286" lon="4.6235">
        <ele>393</ele>
        <time>2017-09-24T16:56:47Z</time>
      </trkpt>
      <trkpt lat="45.94271" lon="4.62358">
        <ele>392</ele>
        <time>2017-09-24T16:56:49Z</time>
      </trkpt>
      <trkpt lat="45.94256" lon="4.62367">
        <ele>391</ele>
        <time>2017-09-24T16:56:51Z</time>
      </trkpt>
      <trkpt lat="45.94242" lon="4.62377">
        <ele>390</ele>
        <time>2017-09-24T16:56:53Z</time>
      </trkpt>
      <trkpt lat="45.94236" lon="4.62384">
        <ele>389</ele>
        <time>2017-09-24T16:56:54Z</time>
      </trkpt>
      <trkpt lat="45.94231" lon="4.62392">
        <ele>389</ele>
        <time>2017-09-24T16:56:55Z</time>
      </trkpt>
      <trkpt lat="45.94228" lon="4.62402">
        <ele>388</ele>
        <time>2017-09-24T16:56:56Z</time>
      </trkpt>
      <trkpt lat="45.94221" lon="4.62423">
        <ele>387</ele>
        <time>2017-09-24T16:56:58Z</time>
      </trkpt>
      <trkpt lat="45.94214" lon="4.62443">
        <ele>386</ele>
        <time>2017-09-24T16:57:00Z</time>
      </trkpt>
      <trkpt lat="45.94205" lon="4.62471">
        <ele>385</ele>
        <time>2017-09-24T16:57:03Z</time>
      </trkpt>
      <trkpt lat="45.94187" lon="4.62516">
        <ele>384</ele>
        <time>2017-09-24T16:57:08Z</time>
      </trkpt>
      <trkpt lat="45.94176" lon="4.62529">
        <ele>384</ele>
        <time>2017-09-24T16:57:10Z</time>
      </trkpt>
      <trkpt lat="45.9417" lon="4.62536">
        <ele>384</ele>
        <time>2017-09-24T16:57:11Z</time>
      </trkpt>
      <trkpt lat="45.94152" lon="4.62565">
        <ele>383</ele>
        <time>2017-09-24T16:57:15Z</time>
      </trkpt>
      <trkpt lat="45.9414" lon="4.62596">
        <ele>383</ele>
        <time>2017-09-24T16:57:19Z</time>
      </trkpt>
      <trkpt lat="45.94134" lon="4.62612">
        <ele>383</ele>
        <time>2017-09-24T16:57:21Z</time>
      </trkpt>
      <trkpt lat="45.94119" lon="4.62644">
        <ele>383</ele>
        <time>2017-09-24T16:57:26Z</time>
      </trkpt>
      <trkpt lat="45.94114" lon="4.62656">
        <ele>383</ele>
        <time>2017-09-24T16:57:28Z</time>
      </trkpt>
      <trkpt lat="45.94111" lon="4.62667">
        <ele>383</ele>
        <time>2017-09-24T16:57:30Z</time>
      </trkpt>
      <trkpt lat="45.94094" lon="4.62713">
        <ele>382</ele>
        <time>2017-09-24T16:57:38Z</time>
      </trkpt>
      <trkpt lat="45.94075" lon="4.62753">
        <ele>381</ele>
        <time>2017-09-24T16:57:45Z</time>
      </trkpt>
      <trkpt lat="45.94072" lon="4.62766">
        <ele>380</ele>
        <time>2017-09-24T16:57:47Z</time>
      </trkpt>
      <trkpt lat="45.94072" lon="4.62781">
        <ele>380</ele>
        <time>2017-09-24T16:57:49Z</time>
      </trkpt>
      <trkpt lat="45.94073" lon="4.6279">
        <ele>379</ele>
        <time>2017-09-24T16:57:50Z</time>
      </trkpt>
      <trkpt lat="45.94077" lon="4.62825">
        <ele>378</ele>
        <time>2017-09-24T16:57:54Z</time>
      </trkpt>
      <trkpt lat="45.9408" lon="4.62854">
        <ele>377</ele>
        <time>2017-09-24T16:57:57Z</time>
      </trkpt>
      <trkpt lat="45.94082" lon="4.6289">
        <ele>376</ele>
        <time>2017-09-24T16:58:01Z</time>
      </trkpt>
      <trkpt lat="45.94086" lon="4.62924">
        <ele>374</ele>
        <time>2017-09-24T16:58:05Z</time>
      </trkpt>
      <trkpt lat="45.94091" lon="4.62971">
        <ele>373</ele>
        <time>2017-09-24T16:58:11Z</time>
      </trkpt>
      <trkpt lat="45.94093" lon="4.62986">
        <ele>372</ele>
        <time>2017-09-24T16:58:13Z</time>
      </trkpt>
      <trkpt lat="45.94098" lon="4.63008">
        <ele>371</ele>
        <time>2017-09-24T16:58:16Z</time>
      </trkpt>
      <trkpt lat="45.94102" lon="4.6303">
        <ele>370</ele>
        <time>2017-09-24T16:58:19Z</time>
      </trkpt>
      <trkpt lat="45.94104" lon="4.63041">
        <ele>370</ele>
        <time>2017-09-24T16:58:21Z</time>
      </trkpt>
      <trkpt lat="45.94117" lon="4.63054">
        <ele>369</ele>
        <time>2017-09-24T16:58:29Z</time>
      </trkpt>
      <trkpt lat="45.94134" lon="4.63077">
        <ele>368</ele>
        <time>2017-09-24T16:58:35Z</time>
      </trkpt>
      <trkpt lat="45.94146" lon="4.63095">
        <ele>367</ele>
        <time>2017-09-24T16:58:39Z</time>
      </trkpt>
      <trkpt lat="45.94147" lon="4.63102">
        <ele>367</ele>
        <time>2017-09-24T16:58:40Z</time>
      </trkpt>
      <trkpt lat="45.94145" lon="4.63109">
        <ele>367</ele>
        <time>2017-09-24T16:58:41Z</time>
      </trkpt>
      <trkpt lat="45.94138" lon="4.63125">
        <ele>366</ele>
        <time>2017-09-24T16:58:43Z</time>
      </trkpt>
      <trkpt lat="45.9413" lon="4.63141">
        <ele>365</ele>
        <time>2017-09-24T16:58:45Z</time>
      </trkpt>
      <trkpt lat="45.9412" lon="4.63159">
        <ele>363</ele>
        <time>2017-09-24T16:58:47Z</time>
      </trkpt>
      <trkpt lat="45.94112" lon="4.63177">
        <ele>361</ele>
        <time>2017-09-24T16:58:49Z</time>
      </trkpt>
      <trkpt lat="45.9411" lon="4.63198">
        <ele>360</ele>
        <time>2017-09-24T16:58:51Z</time>
      </trkpt>
      <trkpt lat="45.94112" lon="4.6322">
        <ele>358</ele>
        <time>2017-09-24T16:58:53Z</time>
      </trkpt>
      <trkpt lat="45.94113" lon="4.63231">
        <ele>356</ele>
        <time>2017-09-24T16:58:54Z</time>
      </trkpt>
      <trkpt lat="45.94116" lon="4.63252">
        <ele>355</ele>
        <time>2017-09-24T16:58:56Z</time>
      </trkpt>
      <trkpt lat="45.94118" lon="4.63274">
        <ele>353</ele>
        <time>2017-09-24T16:58:58Z</time>
      </trkpt>
      <trkpt lat="45.94121" lon="4.63294">
        <ele>352</ele>
        <time>2017-09-24T16:59:00Z</time>
      </trkpt>
      <trkpt lat="45.94125" lon="4.6332">
        <ele>351</ele>
        <time>2017-09-24T16:59:03Z</time>
      </trkpt>
      <trkpt lat="45.94127" lon="4.63328">
        <ele>351</ele>
        <time>2017-09-24T16:59:04Z</time>
      </trkpt>
      <trkpt lat="45.94132" lon="4.63341">
        <ele>351</ele>
        <time>2017-09-24T16:59:06Z</time>
      </trkpt>
      <trkpt lat="45.94135" lon="4.63353">
        <ele>351</ele>
        <time>2017-09-24T16:59:08Z</time>
      </trkpt>
      <trkpt lat="45.94146" lon="4.63388">
        <ele>350</ele>
        <time>2017-09-24T16:59:15Z</time>
      </trkpt>
      <trkpt lat="45.94149" lon="4.634">
        <ele>349</ele>
        <time>2017-09-24T16:59:20Z</time>
      </trkpt>
      <trkpt lat="45.94149" lon="4.63399">
        <ele>348</ele>
        <time>2017-09-24T16:59:33Z</time>
      </trkpt>
      <trkpt lat="45.94149" lon="4.63401">
        <ele>348</ele>
        <time>2017-09-24T17:01:33Z</time>
      </trkpt>
      <trkpt lat="45.94149" lon="4.63402">
        <ele>348</ele>
        <time>2017-09-24T17:02:59Z</time>
      </trkpt>
      <trkpt lat="45.94148" lon="4.63404">
        <ele>348</ele>
        <time>2017-09-24T17:03:00Z</time>
      </trkpt>
      <trkpt lat="45.94146" lon="4.63439">
        <ele>347</ele>
        <time>2017-09-24T17:03:06Z</time>
      </trkpt>
      <trkpt lat="45.94145" lon="4.63456">
        <ele>345</ele>
        <time>2017-09-24T17:03:08Z</time>
      </trkpt>
      <trkpt lat="45.94144" lon="4.63475">
        <ele>344</ele>
        <time>2017-09-24T17:03:10Z</time>
      </trkpt>
      <trkpt lat="45.94143" lon="4.63496">
        <ele>343</ele>
        <time>2017-09-24T17:03:12Z</time>
      </trkpt>
      <trkpt lat="45.94143" lon="4.63518">
        <ele>341</ele>
        <time>2017-09-24T17:03:14Z</time>
      </trkpt>
      <trkpt lat="45.94143" lon="4.63529">
        <ele>341</ele>
        <time>2017-09-24T17:03:15Z</time>
      </trkpt>
      <trkpt lat="45.94142" lon="4.6354">
        <ele>340</ele>
        <time>2017-09-24T17:03:16Z</time>
      </trkpt>
      <trkpt lat="45.94142" lon="4.63559">
        <ele>339</ele>
        <time>2017-09-24T17:03:18Z</time>
      </trkpt>
      <trkpt lat="45.94143" lon="4.63573">
        <ele>337</ele>
        <time>2017-09-24T17:03:20Z</time>
      </trkpt>
      <trkpt lat="45.94144" lon="4.63578">
        <ele>337</ele>
        <time>2017-09-24T17:03:21Z</time>
      </trkpt>
      <trkpt lat="45.94146" lon="4.63581">
        <ele>336</ele>
        <time>2017-09-24T17:03:22Z</time>
      </trkpt>
      <trkpt lat="45.94196" lon="4.63592">
        <ele>336</ele>
        <time>2017-09-24T17:03:36Z</time>
      </trkpt>
      <trkpt lat="45.94209" lon="4.63595">
        <ele>335</ele>
        <time>2017-09-24T17:03:39Z</time>
      </trkpt>
      <trkpt lat="45.94214" lon="4.63595">
        <ele>335</ele>
        <time>2017-09-24T17:03:40Z</time>
      </trkpt>
      <trkpt lat="45.94218" lon="4.63596">
        <ele>335</ele>
        <time>2017-09-24T17:03:41Z</time>
      </trkpt>
      <trkpt lat="45.94233" lon="4.63601">
        <ele>334</ele>
        <time>2017-09-24T17:03:45Z</time>
      </trkpt>
      <trkpt lat="45.94237" lon="4.63605">
        <ele>334</ele>
        <time>2017-09-24T17:03:46Z</time>
      </trkpt>
      <trkpt lat="45.94238" lon="4.63611">
        <ele>334</ele>
        <time>2017-09-24T17:03:47Z</time>
      </trkpt>
      <trkpt lat="45.94243" lon="4.63634">
        <ele>333</ele>
        <time>2017-09-24T17:03:50Z</time>
      </trkpt>
      <trkpt lat="45.94245" lon="4.63642">
        <ele>333</ele>
        <time>2017-09-24T17:03:51Z</time>
      </trkpt>
      <trkpt lat="45.94248" lon="4.6366">
        <ele>332</ele>
        <time>2017-09-24T17:03:53Z</time>
      </trkpt>
      <trkpt lat="45.94252" lon="4.63687">
        <ele>330</ele>
        <time>2017-09-24T17:03:56Z</time>
      </trkpt>
      <trkpt lat="45.94257" lon="4.63705">
        <ele>329</ele>
        <time>2017-09-24T17:03:58Z</time>
      </trkpt>
      <trkpt lat="45.94266" lon="4.63739">
        <ele>328</ele>
        <time>2017-09-24T17:04:02Z</time>
      </trkpt>
      <trkpt lat="45.94267" lon="4.63748">
        <ele>328</ele>
        <time>2017-09-24T17:04:03Z</time>
      </trkpt>
      <trkpt lat="45.94268" lon="4.63764">
        <ele>327</ele>
        <time>2017-09-24T17:04:05Z</time>
      </trkpt>
      <trkpt lat="45.94268" lon="4.63772">
        <ele>327</ele>
        <time>2017-09-24T17:04:06Z</time>
      </trkpt>
      <trkpt lat="45.94267" lon="4.63789">
        <ele>326</ele>
        <time>2017-09-24T17:04:08Z</time>
      </trkpt>
      <trkpt lat="45.94267" lon="4.63805">
        <ele>326</ele>
        <time>2017-09-24T17:04:10Z</time>
      </trkpt>
      <trkpt lat="45.94265" lon="4.63845">
        <ele>325</ele>
        <time>2017-09-24T17:04:15Z</time>
      </trkpt>
      <trkpt lat="45.94267" lon="4.63862">
        <ele>324</ele>
        <time>2017-09-24T17:04:17Z</time>
      </trkpt>
      <trkpt lat="45.94271" lon="4.6388">
        <ele>324</ele>
        <time>2017-09-24T17:04:19Z</time>
      </trkpt>
      <trkpt lat="45.94282" lon="4.63905">
        <ele>322</ele>
        <time>2017-09-24T17:04:22Z</time>
      </trkpt>
      <trkpt lat="45.94294" lon="4.63927">
        <ele>321</ele>
        <time>2017-09-24T17:04:25Z</time>
      </trkpt>
      <trkpt lat="45.94304" lon="4.6395">
        <ele>320</ele>
        <time>2017-09-24T17:04:28Z</time>
      </trkpt>
      <trkpt lat="45.94322" lon="4.63986">
        <ele>319</ele>
        <time>2017-09-24T17:04:33Z</time>
      </trkpt>
      <trkpt lat="45.94335" lon="4.64012">
        <ele>318</ele>
        <time>2017-09-24T17:04:37Z</time>
      </trkpt>
      <trkpt lat="45.94347" lon="4.64038">
        <ele>316</ele>
        <time>2017-09-24T17:04:41Z</time>
      </trkpt>
      <trkpt lat="45.94363" lon="4.64073">
        <ele>315</ele>
        <time>2017-09-24T17:04:46Z</time>
      </trkpt>
      <trkpt lat="45.94374" lon="4.64093">
        <ele>314</ele>
        <time>2017-09-24T17:04:49Z</time>
      </trkpt>
      <trkpt lat="45.94387" lon="4.6412">
        <ele>313</ele>
        <time>2017-09-24T17:04:53Z</time>
      </trkpt>
      <trkpt lat="45.94412" lon="4.64171">
        <ele>312</ele>
        <time>2017-09-24T17:05:00Z</time>
      </trkpt>
      <trkpt lat="45.94423" lon="4.64192">
        <ele>310</ele>
        <time>2017-09-24T17:05:03Z</time>
      </trkpt>
      <trkpt lat="45.94443" lon="4.64231">
        <ele>309</ele>
        <time>2017-09-24T17:05:08Z</time>
      </trkpt>
      <trkpt lat="45.94457" lon="4.64259">
        <ele>308</ele>
        <time>2017-09-24T17:05:12Z</time>
      </trkpt>
      <trkpt lat="45.9446" lon="4.64265">
        <ele>308</ele>
        <time>2017-09-24T17:05:13Z</time>
      </trkpt>
      <trkpt lat="45.94475" lon="4.64292">
        <ele>307</ele>
        <time>2017-09-24T17:05:18Z</time>
      </trkpt>
      <trkpt lat="45.94494" lon="4.64327">
        <ele>306</ele>
        <time>2017-09-24T17:05:25Z</time>
      </trkpt>
      <trkpt lat="45.94502" lon="4.64344">
        <ele>306</ele>
        <time>2017-09-24T17:05:28Z</time>
      </trkpt>
      <trkpt lat="45.94527" lon="4.6441">
        <ele>305</ele>
        <time>2017-09-24T17:05:42Z</time>
      </trkpt>
      <trkpt lat="45.94542" lon="4.64478">
        <ele>304</ele>
        <time>2017-09-24T17:06:13Z</time>
      </trkpt>
      <trkpt lat="45.94541" lon="4.64478">
        <ele>304</ele>
        <time>2017-09-24T17:06:27Z</time>
      </trkpt>
      <trkpt lat="45.94539" lon="4.64479">
        <ele>304</ele>
        <time>2017-09-24T17:06:30Z</time>
      </trkpt>
      <trkpt lat="45.94538" lon="4.64477">
        <ele>304</ele>
        <time>2017-09-24T17:07:57Z</time>
      </trkpt>
      <trkpt lat="45.94538" lon="4.64479">
        <ele>304</ele>
        <time>2017-09-24T17:09:04Z</time>
      </trkpt>
      <trkpt lat="45.94543" lon="4.64504">
        <ele>303</ele>
        <time>2017-09-24T17:09:41Z</time>
      </trkpt>
      <trkpt lat="45.94544" lon="4.64508">
        <ele>303</ele>
        <time>2017-09-24T17:10:27Z</time>
      </trkpt>
      <trkpt lat="45.94543" lon="4.64509">
        <ele>303</ele>
        <time>2017-09-24T17:10:37Z</time>
      </trkpt>
      <trkpt lat="45.94543" lon="4.64514">
        <ele>303</ele>
        <time>2017-09-24T17:10:40Z</time>
      </trkpt>
      <trkpt lat="45.9454" lon="4.64565">
        <ele>302</ele>
        <time>2017-09-24T17:10:55Z</time>
      </trkpt>
      <trkpt lat="45.9454" lon="4.64604">
        <ele>301</ele>
        <time>2017-09-24T17:11:03Z</time>
      </trkpt>
      <trkpt lat="45.94535" lon="4.64648">
        <ele>300</ele>
        <time>2017-09-24T17:11:10Z</time>
      </trkpt>
      <trkpt lat="45.9453" lon="4.64686">
        <ele>299</ele>
        <time>2017-09-24T17:11:16Z</time>
      </trkpt>
      <trkpt lat="45.94528" lon="4.64709">
        <ele>298</ele>
        <time>2017-09-24T17:11:22Z</time>
      </trkpt>
      <trkpt lat="45.94527" lon="4.64756">
        <ele>297</ele>
        <time>2017-09-24T17:11:33Z</time>
      </trkpt>
      <trkpt lat="45.94523" lon="4.64828">
        <ele>296</ele>
        <time>2017-09-24T17:11:46Z</time>
      </trkpt>
      <trkpt lat="45.94526" lon="4.64902">
        <ele>295</ele>
        <time>2017-09-24T17:12:02Z</time>
      </trkpt>
      <trkpt lat="45.94542" lon="4.64967">
        <ele>294</ele>
        <time>2017-09-24T17:12:57Z</time>
      </trkpt>
      <trkpt lat="45.94543" lon="4.6498">
        <ele>294</ele>
        <time>2017-09-24T17:13:00Z</time>
      </trkpt>
      <trkpt lat="45.94554" lon="4.65044">
        <ele>294</ele>
        <time>2017-09-24T17:13:11Z</time>
      </trkpt>
      <trkpt lat="45.94579" lon="4.65114">
        <ele>292</ele>
        <time>2017-09-24T17:13:27Z</time>
      </trkpt>
      <trkpt lat="45.94605" lon="4.65164">
        <ele>291</ele>
        <time>2017-09-24T17:13:36Z</time>
      </trkpt>
      <trkpt lat="45.94617" lon="4.65186">
        <ele>290</ele>
        <time>2017-09-24T17:13:39Z</time>
      </trkpt>
      <trkpt lat="45.9463" lon="4.65214">
        <ele>289</ele>
        <time>2017-09-24T17:13:43Z</time>
      </trkpt>
      <trkpt lat="45.94647" lon="4.65244">
        <ele>288</ele>
        <time>2017-09-24T17:13:48Z</time>
      </trkpt>
      <trkpt lat="45.94655" lon="4.65261">
        <ele>287</ele>
        <time>2017-09-24T17:13:51Z</time>
      </trkpt>
      <trkpt lat="45.94658" lon="4.65266">
        <ele>287</ele>
        <time>2017-09-24T17:13:52Z</time>
      </trkpt>
      <trkpt lat="45.94661" lon="4.65271">
        <ele>286</ele>
        <time>2017-09-24T17:13:53Z</time>
      </trkpt>
      <trkpt lat="45.94674" lon="4.65294">
        <ele>286</ele>
        <time>2017-09-24T17:13:58Z</time>
      </trkpt>
      <trkpt lat="45.94686" lon="4.65316">
        <ele>284</ele>
        <time>2017-09-24T17:14:03Z</time>
      </trkpt>
      <trkpt lat="45.94693" lon="4.65343">
        <ele>283</ele>
        <time>2017-09-24T17:14:09Z</time>
      </trkpt>
      <trkpt lat="45.947" lon="4.65375">
        <ele>282</ele>
        <time>2017-09-24T17:14:15Z</time>
      </trkpt>
      <trkpt lat="45.94705" lon="4.65392">
        <ele>281</ele>
        <time>2017-09-24T17:14:19Z</time>
      </trkpt>
      <trkpt lat="45.94711" lon="4.65414">
        <ele>280</ele>
        <time>2017-09-24T17:14:24Z</time>
      </trkpt>
      <trkpt lat="45.94721" lon="4.65437">
        <ele>279</ele>
        <time>2017-09-24T17:14:29Z</time>
      </trkpt>
      <trkpt lat="45.94734" lon="4.65459">
        <ele>278</ele>
        <time>2017-09-24T17:14:34Z</time>
      </trkpt>
      <trkpt lat="45.94747" lon="4.65475">
        <ele>277</ele>
        <time>2017-09-24T17:14:39Z</time>
      </trkpt>
      <trkpt lat="45.94762" lon="4.65491">
        <ele>276</ele>
        <time>2017-09-24T17:14:45Z</time>
      </trkpt>
      <trkpt lat="45.94778" lon="4.6551">
        <ele>275</ele>
        <time>2017-09-24T17:14:51Z</time>
      </trkpt>
      <trkpt lat="45.94785" lon="4.65519">
        <ele>275</ele>
        <time>2017-09-24T17:14:53Z</time>
      </trkpt>
      <trkpt lat="45.94802" lon="4.6555">
        <ele>274</ele>
        <time>2017-09-24T17:14:59Z</time>
      </trkpt>
      <trkpt lat="45.94814" lon="4.65575">
        <ele>273</ele>
        <time>2017-09-24T17:15:05Z</time>
      </trkpt>
      <trkpt lat="45.94829" lon="4.65602">
        <ele>271</ele>
        <time>2017-09-24T17:15:12Z</time>
      </trkpt>
      <trkpt lat="45.94841" lon="4.65622">
        <ele>270</ele>
        <time>2017-09-24T17:15:17Z</time>
      </trkpt>
      <trkpt lat="45.94849" lon="4.65636">
        <ele>269</ele>
        <time>2017-09-24T17:15:21Z</time>
      </trkpt>
      <trkpt lat="45.9486" lon="4.65667">
        <ele>268</ele>
        <time>2017-09-24T17:15:28Z</time>
      </trkpt>
      <trkpt lat="45.94867" lon="4.65683">
        <ele>267</ele>
        <time>2017-09-24T17:15:32Z</time>
      </trkpt>
      <trkpt lat="45.94875" lon="4.65693">
        <ele>266</ele>
        <time>2017-09-24T17:15:35Z</time>
      </trkpt>
      <trkpt lat="45.94883" lon="4.65714">
        <ele>264</ele>
        <time>2017-09-24T17:15:39Z</time>
      </trkpt>
      <trkpt lat="45.94885" lon="4.6572">
        <ele>264</ele>
        <time>2017-09-24T17:15:40Z</time>
      </trkpt>
      <trkpt lat="45.94888" lon="4.65732">
        <ele>263</ele>
        <time>2017-09-24T17:15:42Z</time>
      </trkpt>
      <trkpt lat="45.94895" lon="4.6575">
        <ele>262</ele>
        <time>2017-09-24T17:15:45Z</time>
      </trkpt>
      <trkpt lat="45.94903" lon="4.65769">
        <ele>261</ele>
        <time>2017-09-24T17:15:48Z</time>
      </trkpt>
      <trkpt lat="45.94906" lon="4.65775">
        <ele>261</ele>
        <time>2017-09-24T17:15:49Z</time>
      </trkpt>
      <trkpt lat="45.94912" lon="4.6579">
        <ele>260</ele>
        <time>2017-09-24T17:15:51Z</time>
      </trkpt>
      <trkpt lat="45.94915" lon="4.65797">
        <ele>259</ele>
        <time>2017-09-24T17:15:52Z</time>
      </trkpt>
      <trkpt lat="45.9492" lon="4.65813">
        <ele>258</ele>
        <time>2017-09-24T17:15:54Z</time>
      </trkpt>
      <trkpt lat="45.94928" lon="4.65835">
        <ele>257</ele>
        <time>2017-09-24T17:15:57Z</time>
      </trkpt>
      <trkpt lat="45.94936" lon="4.65857">
        <ele>256</ele>
        <time>2017-09-24T17:16:00Z</time>
      </trkpt>
      <trkpt lat="45.94942" lon="4.65871">
        <ele>254</ele>
        <time>2017-09-24T17:16:02Z</time>
      </trkpt>
      <trkpt lat="45.94944" lon="4.65878">
        <ele>254</ele>
        <time>2017-09-24T17:16:03Z</time>
      </trkpt>
      <trkpt lat="45.94946" lon="4.65885">
        <ele>253</ele>
        <time>2017-09-24T17:16:04Z</time>
      </trkpt>
      <trkpt lat="45.94949" lon="4.65891">
        <ele>252</ele>
        <time>2017-09-24T17:16:05Z</time>
      </trkpt>
      <trkpt lat="45.94953" lon="4.659">
        <ele>252</ele>
        <time>2017-09-24T17:16:07Z</time>
      </trkpt>
      <trkpt lat="45.9496" lon="4.65917">
        <ele>251</ele>
        <time>2017-09-24T17:16:57Z</time>
      </trkpt>
      <trkpt lat="45.9498" lon="4.65967">
        <ele>251</ele>
        <time>2017-09-24T17:17:10Z</time>
      </trkpt>
      <trkpt lat="45.95002" lon="4.6604">
        <ele>253</ele>
        <time>2017-09-24T17:17:28Z</time>
      </trkpt>
      <trkpt lat="45.95013" lon="4.66117">
        <ele>251</ele>
        <time>2017-09-24T17:17:46Z</time>
      </trkpt>
      <trkpt lat="45.95011" lon="4.66124">
        <ele>251</ele>
        <time>2017-09-24T17:17:47Z</time>
      </trkpt>
      <trkpt lat="45.95008" lon="4.6613">
        <ele>250</ele>
        <time>2017-09-24T17:17:48Z</time>
      </trkpt>
      <trkpt lat="45.94998" lon="4.66137">
        <ele>249</ele>
        <time>2017-09-24T17:17:50Z</time>
      </trkpt>
      <trkpt lat="45.94988" lon="4.66141">
        <ele>249</ele>
        <time>2017-09-24T17:17:52Z</time>
      </trkpt>
      <trkpt lat="45.9498" lon="4.66148">
        <ele>248</ele>
        <time>2017-09-24T17:17:54Z</time>
      </trkpt>
      <trkpt lat="45.94967" lon="4.66163">
        <ele>248</ele>
        <time>2017-09-24T17:17:58Z</time>
      </trkpt>
      <trkpt lat="45.94959" lon="4.66169">
        <ele>248</ele>
        <time>2017-09-24T17:18:00Z</time>
      </trkpt>
      <trkpt lat="45.94908" lon="4.66186">
        <ele>250</ele>
        <time>2017-09-24T17:18:14Z</time>
      </trkpt>
      <trkpt lat="45.94897" lon="4.66191">
        <ele>251</ele>
        <time>2017-09-24T17:18:19Z</time>
      </trkpt>
      <trkpt lat="45.94895" lon="4.66196">
        <ele>252</ele>
        <time>2017-09-24T17:18:27Z</time>
      </trkpt>
      <trkpt lat="45.94892" lon="4.66206">
        <ele>252</ele>
        <time>2017-09-24T17:18:30Z</time>
      </trkpt>
      <trkpt lat="45.94888" lon="4.66224">
        <ele>252</ele>
        <time>2017-09-24T17:18:34Z</time>
      </trkpt>
      <trkpt lat="45.9488" lon="4.66231">
        <ele>251</ele>
        <time>2017-09-24T17:18:36Z</time>
      </trkpt>
      <trkpt lat="45.94872" lon="4.66237">
        <ele>251</ele>
        <time>2017-09-24T17:18:38Z</time>
      </trkpt>
      <trkpt lat="45.94834" lon="4.66293">
        <ele>252</ele>
        <time>2017-09-24T17:18:53Z</time>
      </trkpt>
      <trkpt lat="45.94833" lon="4.66317">
        <ele>254</ele>
        <time>2017-09-24T17:19:00Z</time>
      </trkpt>
      <trkpt lat="45.94835" lon="4.66336">
        <ele>255</ele>
        <time>2017-09-24T17:19:06Z</time>
      </trkpt>
      <trkpt lat="45.94836" lon="4.66351">
        <ele>256</ele>
        <time>2017-09-24T17:19:11Z</time>
      </trkpt>
      <trkpt lat="45.94835" lon="4.66354">
        <ele>256</ele>
        <time>2017-09-24T17:19:12Z</time>
      </trkpt>
      <trkpt lat="45.94832" lon="4.66361">
        <ele>257</ele>
        <time>2017-09-24T17:19:16Z</time>
      </trkpt>
      <trkpt lat="45.94826" lon="4.66366">
        <ele>258</ele>
        <time>2017-09-24T17:19:41Z</time>
      </trkpt>
      <trkpt lat="45.94824" lon="4.66369">
        <ele>258</ele>
        <time>2017-09-24T17:19:43Z</time>
      </trkpt>
      <trkpt lat="45.94817" lon="4.66376">
        <ele>259</ele>
        <time>2017-09-24T17:19:48Z</time>
      </trkpt>
      <trkpt lat="45.94813" lon="4.6638">
        <ele>260</ele>
        <time>2017-09-24T17:19:51Z</time>
      </trkpt>
      <trkpt lat="45.94809" lon="4.66386">
        <ele>261</ele>
        <time>2017-09-24T17:19:55Z</time>
      </trkpt>
      <trkpt lat="45.94801" lon="4.66394">
        <ele>262</ele>
        <time>2017-09-24T17:19:59Z</time>
      </trkpt>
      <trkpt lat="45.94792" lon="4.66404">
        <ele>264</ele>
        <time>2017-09-24T17:20:04Z</time>
      </trkpt>
      <trkpt lat="45.94783" lon="4.66415">
        <ele>265</ele>
        <time>2017-09-24T17:20:10Z</time>
      </trkpt>
      <trkpt lat="45.94775" lon="4.66425">
        <ele>266</ele>
        <time>2017-09-24T17:20:15Z</time>
      </trkpt>
      <trkpt lat="45.94768" lon="4.66436">
        <ele>267</ele>
        <time>2017-09-24T17:20:20Z</time>
      </trkpt>
      <trkpt lat="45.94763" lon="4.66445">
        <ele>268</ele>
        <time>2017-09-24T17:20:24Z</time>
      </trkpt>
      <trkpt lat="45.94758" lon="4.66456">
        <ele>269</ele>
        <time>2017-09-24T17:20:28Z</time>
      </trkpt>
      <trkpt lat="45.94756" lon="4.66461">
        <ele>270</ele>
        <time>2017-09-24T17:20:30Z</time>
      </trkpt>
      <trkpt lat="45.94752" lon="4.66466">
        <ele>271</ele>
        <time>2017-09-24T17:20:33Z</time>
      </trkpt>
      <trkpt lat="45.94747" lon="4.66473">
        <ele>272</ele>
        <time>2017-09-24T17:20:37Z</time>
      </trkpt>
      <trkpt lat="45.94741" lon="4.66482">
        <ele>273</ele>
        <time>2017-09-24T17:20:42Z</time>
      </trkpt>
      <trkpt lat="45.94734" lon="4.66495">
        <ele>274</ele>
        <time>2017-09-24T17:20:49Z</time>
      </trkpt>
      <trkpt lat="45.94731" lon="4.66502">
        <ele>274</ele>
        <time>2017-09-24T17:20:53Z</time>
      </trkpt>
      <trkpt lat="45.94728" lon="4.66507">
        <ele>275</ele>
        <time>2017-09-24T17:20:56Z</time>
      </trkpt>
      <trkpt lat="45.94726" lon="4.66511">
        <ele>275</ele>
        <time>2017-09-24T17:20:58Z</time>
      </trkpt>
      <trkpt lat="45.94715" lon="4.66525">
        <ele>276</ele>
        <time>2017-09-24T17:21:08Z</time>
      </trkpt>
      <trkpt lat="45.94713" lon="4.66529">
        <ele>276</ele>
        <time>2017-09-24T17:21:10Z</time>
      </trkpt>
      <trkpt lat="45.94706" lon="4.66538">
        <ele>277</ele>
        <time>2017-09-24T17:21:15Z</time>
      </trkpt>
      <trkpt lat="45.94697" lon="4.66553">
        <ele>278</ele>
        <time>2017-09-24T17:21:24Z</time>
      </trkpt>
      <trkpt lat="45.94689" lon="4.66565">
        <ele>279</ele>
        <time>2017-09-24T17:21:31Z</time>
      </trkpt>
      <trkpt lat="45.94678" lon="4.66584">
        <ele>280</ele>
        <time>2017-09-24T17:21:41Z</time>
      </trkpt>
      <trkpt lat="45.94673" lon="4.66592">
        <ele>281</ele>
        <time>2017-09-24T17:21:51Z</time>
      </trkpt>
      <trkpt lat="45.94674" lon="4.66594">
        <ele>281</ele>
        <time>2017-09-24T17:21:56Z</time>
      </trkpt>
      <trkpt lat="45.94673" lon="4.666">
        <ele>281</ele>
        <time>2017-09-24T17:21:59Z</time>
      </trkpt>
      <trkpt lat="45.94665" lon="4.66625">
        <ele>282</ele>
        <time>2017-09-24T17:22:10Z</time>
      </trkpt>
      <trkpt lat="45.94659" lon="4.66647">
        <ele>283</ele>
        <time>2017-09-24T17:22:19Z</time>
      </trkpt>
      <trkpt lat="45.94654" lon="4.66668">
        <ele>284</ele>
        <time>2017-09-24T17:22:28Z</time>
      </trkpt>
      <trkpt lat="45.94646" lon="4.667">
        <ele>285</ele>
        <time>2017-09-24T17:22:39Z</time>
      </trkpt>
      <trkpt lat="45.9464" lon="4.66722">
        <ele>287</ele>
        <time>2017-09-24T17:22:47Z</time>
      </trkpt>
      <trkpt lat="45.94632" lon="4.66744">
        <ele>288</ele>
        <time>2017-09-24T17:22:55Z</time>
      </trkpt>
      <trkpt lat="45.94626" lon="4.66764">
        <ele>289</ele>
        <time>2017-09-24T17:23:02Z</time>
      </trkpt>
      <trkpt lat="45.94618" lon="4.66785">
        <ele>290</ele>
        <time>2017-09-24T17:23:10Z</time>
      </trkpt>
      <trkpt lat="45.9461" lon="4.66796">
        <ele>291</ele>
        <time>2017-09-24T17:23:16Z</time>
      </trkpt>
      <trkpt lat="45.94604" lon="4.668">
        <ele>291</ele>
        <time>2017-09-24T17:23:24Z</time>
      </trkpt>
      <trkpt lat="45.94603" lon="4.66798">
        <ele>291</ele>
        <time>2017-09-24T17:24:50Z</time>
      </trkpt>
      <trkpt lat="45.94601" lon="4.66799">
        <ele>291</ele>
        <time>2017-09-24T17:25:56Z</time>
      </trkpt>
      <trkpt lat="45.94574" lon="4.6681">
        <ele>292</ele>
        <time>2017-09-24T17:26:08Z</time>
      </trkpt>
      <trkpt lat="45.94559" lon="4.66831">
        <ele>293</ele>
        <time>2017-09-24T17:26:16Z</time>
      </trkpt>
      <trkpt lat="45.94549" lon="4.66849">
        <ele>294</ele>
        <time>2017-09-24T17:26:22Z</time>
      </trkpt>
      <trkpt lat="45.94546" lon="4.66854">
        <ele>294</ele>
        <time>2017-09-24T17:26:24Z</time>
      </trkpt>
      <trkpt lat="45.94537" lon="4.6687">
        <ele>295</ele>
        <time>2017-09-24T17:26:30Z</time>
      </trkpt>
      <trkpt lat="45.94523" lon="4.66893">
        <ele>296</ele>
        <time>2017-09-24T17:26:39Z</time>
      </trkpt>
      <trkpt lat="45.94516" lon="4.66919">
        <ele>297</ele>
        <time>2017-09-24T17:26:47Z</time>
      </trkpt>
      <trkpt lat="45.94507" lon="4.66944">
        <ele>298</ele>
        <time>2017-09-24T17:26:55Z</time>
      </trkpt>
      <trkpt lat="45.9449" lon="4.66965">
        <ele>299</ele>
        <time>2017-09-24T17:27:05Z</time>
      </trkpt>
      <trkpt lat="45.9447" lon="4.6698">
        <ele>300</ele>
        <time>2017-09-24T17:27:14Z</time>
      </trkpt>
      <trkpt lat="45.94451" lon="4.66992">
        <ele>301</ele>
        <time>2017-09-24T17:27:24Z</time>
      </trkpt>
      <trkpt lat="45.94436" lon="4.67009">
        <ele>302</ele>
        <time>2017-09-24T17:27:33Z</time>
      </trkpt>
      <trkpt lat="45.94426" lon="4.6702">
        <ele>303</ele>
        <time>2017-09-24T17:27:39Z</time>
      </trkpt>
      <trkpt lat="45.94415" lon="4.6704">
        <ele>303</ele>
        <time>2017-09-24T17:27:47Z</time>
      </trkpt>
      <trkpt lat="45.94399" lon="4.67059">
        <ele>304</ele>
        <time>2017-09-24T17:28:01Z</time>
      </trkpt>
      <trkpt lat="45.94398" lon="4.67064">
        <ele>305</ele>
        <time>2017-09-24T17:28:17Z</time>
      </trkpt>
      <trkpt lat="45.94396" lon="4.67068">
        <ele>305</ele>
        <time>2017-09-24T17:28:20Z</time>
      </trkpt>
      <trkpt lat="45.94392" lon="4.67075">
        <ele>305</ele>
        <time>2017-09-24T17:28:23Z</time>
      </trkpt>
      <trkpt lat="45.9437" lon="4.67106">
        <ele>305</ele>
        <time>2017-09-24T17:28:35Z</time>
      </trkpt>
      <trkpt lat="45.94369" lon="4.67108">
        <ele>305</ele>
        <time>2017-09-24T17:28:36Z</time>
      </trkpt>
      <trkpt lat="45.94332" lon="4.67166">
        <ele>305</ele>
        <time>2017-09-24T17:29:00Z</time>
      </trkpt>
      <trkpt lat="45.94314" lon="4.67201">
        <ele>303</ele>
        <time>2017-09-24T17:29:09Z</time>
      </trkpt>
      <trkpt lat="45.94301" lon="4.67218">
        <ele>302</ele>
        <time>2017-09-24T17:29:14Z</time>
      </trkpt>
      <trkpt lat="45.94292" lon="4.67231">
        <ele>301</ele>
        <time>2017-09-24T17:29:18Z</time>
      </trkpt>
      <trkpt lat="45.94279" lon="4.67249">
        <ele>300</ele>
        <time>2017-09-24T17:29:23Z</time>
      </trkpt>
      <trkpt lat="45.94269" lon="4.67266">
        <ele>298</ele>
        <time>2017-09-24T17:29:26Z</time>
      </trkpt>
      <trkpt lat="45.94262" lon="4.67279">
        <ele>297</ele>
        <time>2017-09-24T17:29:28Z</time>
      </trkpt>
      <trkpt lat="45.94258" lon="4.67286">
        <ele>297</ele>
        <time>2017-09-24T17:29:29Z</time>
      </trkpt>
      <trkpt lat="45.94247" lon="4.67308">
        <ele>295</ele>
        <time>2017-09-24T17:29:32Z</time>
      </trkpt>
      <trkpt lat="45.94237" lon="4.6733">
        <ele>294</ele>
        <time>2017-09-24T17:29:35Z</time>
      </trkpt>
      <trkpt lat="45.94224" lon="4.67355">
        <ele>293</ele>
        <time>2017-09-24T17:29:39Z</time>
      </trkpt>
      <trkpt lat="45.94216" lon="4.67365">
        <ele>292</ele>
        <time>2017-09-24T17:29:41Z</time>
      </trkpt>
      <trkpt lat="45.94207" lon="4.67374">
        <ele>292</ele>
        <time>2017-09-24T17:29:43Z</time>
      </trkpt>
      <trkpt lat="45.94202" lon="4.67379">
        <ele>291</ele>
        <time>2017-09-24T17:29:44Z</time>
      </trkpt>
      <trkpt lat="45.94188" lon="4.67404">
        <ele>291</ele>
        <time>2017-09-24T17:29:48Z</time>
      </trkpt>
      <trkpt lat="45.94178" lon="4.67428">
        <ele>290</ele>
        <time>2017-09-24T17:29:52Z</time>
      </trkpt>
      <trkpt lat="45.94174" lon="4.6744">
        <ele>289</ele>
        <time>2017-09-24T17:29:54Z</time>
      </trkpt>
      <trkpt lat="45.94151" lon="4.6751">
        <ele>291</ele>
        <time>2017-09-24T17:30:10Z</time>
      </trkpt>
      <trkpt lat="45.94138" lon="4.67571">
        <ele>291</ele>
        <time>2017-09-24T17:30:28Z</time>
      </trkpt>
      <trkpt lat="45.94139" lon="4.67578">
        <ele>291</ele>
        <time>2017-09-24T17:30:31Z</time>
      </trkpt>
      <trkpt lat="45.94143" lon="4.67614">
        <ele>290</ele>
        <time>2017-09-24T17:30:41Z</time>
      </trkpt>
      <trkpt lat="45.94144" lon="4.67618">
        <ele>290</ele>
        <time>2017-09-24T17:30:42Z</time>
      </trkpt>
      <trkpt lat="45.94147" lon="4.67646">
        <ele>289</ele>
        <time>2017-09-24T17:30:47Z</time>
      </trkpt>
      <trkpt lat="45.94149" lon="4.67667">
        <ele>288</ele>
        <time>2017-09-24T17:30:51Z</time>
      </trkpt>
      <trkpt lat="45.94151" lon="4.67677">
        <ele>287</ele>
        <time>2017-09-24T17:30:53Z</time>
      </trkpt>
      <trkpt lat="45.94152" lon="4.67695">
        <ele>286</ele>
        <time>2017-09-24T17:30:56Z</time>
      </trkpt>
      <trkpt lat="45.94151" lon="4.67713">
        <ele>285</ele>
        <time>2017-09-24T17:30:59Z</time>
      </trkpt>
      <trkpt lat="45.9415" lon="4.6772">
        <ele>285</ele>
        <time>2017-09-24T17:31:00Z</time>
      </trkpt>
      <trkpt lat="45.94149" lon="4.67732">
        <ele>284</ele>
        <time>2017-09-24T17:31:03Z</time>
      </trkpt>
      <trkpt lat="45.94149" lon="4.67741">
        <ele>283</ele>
        <time>2017-09-24T17:31:18Z</time>
      </trkpt>
      <trkpt lat="45.94149" lon="4.67744">
        <ele>283</ele>
        <time>2017-09-24T17:31:20Z</time>
      </trkpt>
      <trkpt lat="45.94149" lon="4.67747">
        <ele>283</ele>
        <time>2017-09-24T17:31:21Z</time>
      </trkpt>
      <trkpt lat="45.94149" lon="4.67756">
        <ele>282</ele>
        <time>2017-09-24T17:31:24Z</time>
      </trkpt>
      <trkpt lat="45.94148" lon="4.67771">
        <ele>282</ele>
        <time>2017-09-24T17:31:27Z</time>
      </trkpt>
      <trkpt lat="45.94148" lon="4.67786">
        <ele>281</ele>
        <time>2017-09-24T17:31:30Z</time>
      </trkpt>
      <trkpt lat="45.94148" lon="4.67798">
        <ele>279</ele>
        <time>2017-09-24T17:31:33Z</time>
      </trkpt>
      <trkpt lat="45.94147" lon="4.67804">
        <ele>278</ele>
        <time>2017-09-24T17:31:35Z</time>
      </trkpt>
      <trkpt lat="45.94146" lon="4.67816">
        <ele>277</ele>
        <time>2017-09-24T17:31:38Z</time>
      </trkpt>
      <trkpt lat="45.94144" lon="4.67825">
        <ele>276</ele>
        <time>2017-09-24T17:31:41Z</time>
      </trkpt>
      <trkpt lat="45.9414" lon="4.67842">
        <ele>275</ele>
        <time>2017-09-24T17:31:45Z</time>
      </trkpt>
      <trkpt lat="45.94137" lon="4.67859">
        <ele>273</ele>
        <time>2017-09-24T17:31:48Z</time>
      </trkpt>
      <trkpt lat="45.94132" lon="4.67884">
        <ele>272</ele>
        <time>2017-09-24T17:31:54Z</time>
      </trkpt>
      <trkpt lat="45.94132" lon="4.67887">
        <ele>272</ele>
        <time>2017-09-24T17:31:59Z</time>
      </trkpt>
      <trkpt lat="45.94132" lon="4.67888">
        <ele>272</ele>
        <time>2017-09-24T17:32:12Z</time>
      </trkpt>
      <trkpt lat="45.94131" lon="4.67893">
        <ele>272</ele>
        <time>2017-09-24T17:32:14Z</time>
      </trkpt>
      <trkpt lat="45.94126" lon="4.67948">
        <ele>274</ele>
        <time>2017-09-24T17:32:29Z</time>
      </trkpt>
      <trkpt lat="45.94124" lon="4.67963">
        <ele>275</ele>
        <time>2017-09-24T17:32:34Z</time>
      </trkpt>
      <trkpt lat="45.94124" lon="4.67965">
        <ele>275</ele>
        <time>2017-09-24T17:32:35Z</time>
      </trkpt>
      <trkpt lat="45.94123" lon="4.67969">
        <ele>276</ele>
        <time>2017-09-24T17:32:37Z</time>
      </trkpt>
      <trkpt lat="45.94122" lon="4.67977">
        <ele>277</ele>
        <time>2017-09-24T17:32:42Z</time>
      </trkpt>
      <trkpt lat="45.94121" lon="4.67986">
        <ele>278</ele>
        <time>2017-09-24T17:32:47Z</time>
      </trkpt>
      <trkpt lat="45.9412" lon="4.67993">
        <ele>279</ele>
        <time>2017-09-24T17:32:52Z</time>
      </trkpt>
      <trkpt lat="45.94119" lon="4.67996">
        <ele>280</ele>
        <time>2017-09-24T17:32:55Z</time>
      </trkpt>
      <trkpt lat="45.94119" lon="4.68003">
        <ele>280</ele>
        <time>2017-09-24T17:32:59Z</time>
      </trkpt>
      <trkpt lat="45.94117" lon="4.68011">
        <ele>281</ele>
        <time>2017-09-24T17:33:04Z</time>
      </trkpt>
      <trkpt lat="45.94116" lon="4.6802">
        <ele>283</ele>
        <time>2017-09-24T17:33:09Z</time>
      </trkpt>
      <trkpt lat="45.94114" lon="4.68032">
        <ele>284</ele>
        <time>2017-09-24T17:33:16Z</time>
      </trkpt>
      <trkpt lat="45.94112" lon="4.68039">
        <ele>285</ele>
        <time>2017-09-24T17:33:21Z</time>
      </trkpt>
      <trkpt lat="45.9411" lon="4.6805">
        <ele>286</ele>
        <time>2017-09-24T17:33:27Z</time>
      </trkpt>
      <trkpt lat="45.94109" lon="4.68059">
        <ele>287</ele>
        <time>2017-09-24T17:33:33Z</time>
      </trkpt>
      <trkpt lat="45.94107" lon="4.68069">
        <ele>288</ele>
        <time>2017-09-24T17:33:39Z</time>
      </trkpt>
      <trkpt lat="45.94106" lon="4.68077">
        <ele>289</ele>
        <time>2017-09-24T17:33:44Z</time>
      </trkpt>
      <trkpt lat="45.94103" lon="4.68086">
        <ele>290</ele>
        <time>2017-09-24T17:34:11Z</time>
      </trkpt>
      <trkpt lat="45.941" lon="4.68092">
        <ele>290</ele>
        <time>2017-09-24T17:34:14Z</time>
      </trkpt>
      <trkpt lat="45.94099" lon="4.68096">
        <ele>290</ele>
        <time>2017-09-24T17:34:16Z</time>
      </trkpt>
      <trkpt lat="45.94089" lon="4.68115">
        <ele>291</ele>
        <time>2017-09-24T17:34:23Z</time>
      </trkpt>
      <trkpt lat="45.94083" lon="4.68125">
        <ele>292</ele>
        <time>2017-09-24T17:34:27Z</time>
      </trkpt>
      <trkpt lat="45.94075" lon="4.68135">
        <ele>293</ele>
        <time>2017-09-24T17:34:32Z</time>
      </trkpt>
      <trkpt lat="45.94064" lon="4.68146">
        <ele>295</ele>
        <time>2017-09-24T17:34:38Z</time>
      </trkpt>
      <trkpt lat="45.94054" lon="4.68157">
        <ele>296</ele>
        <time>2017-09-24T17:34:44Z</time>
      </trkpt>
      <trkpt lat="45.94045" lon="4.68165">
        <ele>297</ele>
        <time>2017-09-24T17:34:49Z</time>
      </trkpt>
      <trkpt lat="45.94039" lon="4.68173">
        <ele>298</ele>
        <time>2017-09-24T17:34:53Z</time>
      </trkpt>
      <trkpt lat="45.94035" lon="4.68181">
        <ele>299</ele>
        <time>2017-09-24T17:34:57Z</time>
      </trkpt>
      <trkpt lat="45.94028" lon="4.68191">
        <ele>300</ele>
        <time>2017-09-24T17:35:02Z</time>
      </trkpt>
      <trkpt lat="45.94024" lon="4.68199">
        <ele>302</ele>
        <time>2017-09-24T17:35:07Z</time>
      </trkpt>
      <trkpt lat="45.94019" lon="4.68209">
        <ele>303</ele>
        <time>2017-09-24T17:35:13Z</time>
      </trkpt>
      <trkpt lat="45.94015" lon="4.68216">
        <ele>304</ele>
        <time>2017-09-24T17:35:17Z</time>
      </trkpt>
      <trkpt lat="45.9401" lon="4.68232">
        <ele>305</ele>
        <time>2017-09-24T17:35:24Z</time>
      </trkpt>
      <trkpt lat="45.94007" lon="4.68239">
        <ele>306</ele>
        <time>2017-09-24T17:35:29Z</time>
      </trkpt>
      <trkpt lat="45.94002" lon="4.68249">
        <ele>307</ele>
        <time>2017-09-24T17:35:36Z</time>
      </trkpt>
      <trkpt lat="45.93995" lon="4.68267">
        <ele>308</ele>
        <time>2017-09-24T17:35:46Z</time>
      </trkpt>
      <trkpt lat="45.93988" lon="4.68277">
        <ele>309</ele>
        <time>2017-09-24T17:35:53Z</time>
      </trkpt>
      <trkpt lat="45.93983" lon="4.68288">
        <ele>310</ele>
        <time>2017-09-24T17:36:00Z</time>
      </trkpt>
      <trkpt lat="45.93977" lon="4.68299">
        <ele>311</ele>
        <time>2017-09-24T17:36:07Z</time>
      </trkpt>
      <trkpt lat="45.9397" lon="4.68312">
        <ele>312</ele>
        <time>2017-09-24T17:36:15Z</time>
      </trkpt>
      <trkpt lat="45.93967" lon="4.68316">
        <ele>313</ele>
        <time>2017-09-24T17:36:29Z</time>
      </trkpt>
      <trkpt lat="45.93965" lon="4.68319">
        <ele>313</ele>
        <time>2017-09-24T17:36:31Z</time>
      </trkpt>
      <trkpt lat="45.93962" lon="4.68323">
        <ele>313</ele>
        <time>2017-09-24T17:36:34Z</time>
      </trkpt>
      <trkpt lat="45.93962" lon="4.68324">
        <ele>314</ele>
        <time>2017-09-24T17:36:35Z</time>
      </trkpt>
      <trkpt lat="45.93953" lon="4.68334">
        <ele>314</ele>
        <time>2017-09-24T17:36:41Z</time>
      </trkpt>
      <trkpt lat="45.93942" lon="4.68348">
        <ele>316</ele>
        <time>2017-09-24T17:36:48Z</time>
      </trkpt>
      <trkpt lat="45.9393" lon="4.68363">
        <ele>317</ele>
        <time>2017-09-24T17:36:56Z</time>
      </trkpt>
      <trkpt lat="45.9392" lon="4.68375">
        <ele>318</ele>
        <time>2017-09-24T17:37:03Z</time>
      </trkpt>
      <trkpt lat="45.93918" lon="4.68377">
        <ele>318</ele>
        <time>2017-09-24T17:37:04Z</time>
      </trkpt>
      <trkpt lat="45.93911" lon="4.68385">
        <ele>319</ele>
        <time>2017-09-24T17:37:09Z</time>
      </trkpt>
      <trkpt lat="45.93905" lon="4.6839">
        <ele>320</ele>
        <time>2017-09-24T17:37:16Z</time>
      </trkpt>
      <trkpt lat="45.93905" lon="4.6839">
        <ele>320</ele>
        <time>2017-09-24T17:37:41Z</time>
      </trkpt>
      <trkpt lat="45.93905" lon="4.6839">
        <ele>320</ele>
        <time>2017-09-24T17:38:17Z</time>
      </trkpt>
      <trkpt lat="45.939" lon="4.68395">
        <ele>320</ele>
        <time>2017-09-24T17:38:47Z</time>
      </trkpt>
      <trkpt lat="45.93884" lon="4.68408">
        <ele>321</ele>
        <time>2017-09-24T17:38:55Z</time>
      </trkpt>
      <trkpt lat="45.93872" lon="4.68416">
        <ele>322</ele>
        <time>2017-09-24T17:39:01Z</time>
      </trkpt>
      <trkpt lat="45.93864" lon="4.68422">
        <ele>323</ele>
        <time>2017-09-24T17:39:06Z</time>
      </trkpt>
      <trkpt lat="45.93851" lon="4.68432">
        <ele>324</ele>
        <time>2017-09-24T17:39:13Z</time>
      </trkpt>
      <trkpt lat="45.9384" lon="4.68439">
        <ele>325</ele>
        <time>2017-09-24T17:39:19Z</time>
      </trkpt>
      <trkpt lat="45.9383" lon="4.68446">
        <ele>326</ele>
        <time>2017-09-24T17:39:25Z</time>
      </trkpt>
      <trkpt lat="45.93818" lon="4.68456">
        <ele>327</ele>
        <time>2017-09-24T17:39:32Z</time>
      </trkpt>
      <trkpt lat="45.93808" lon="4.68464">
        <ele>328</ele>
        <time>2017-09-24T17:39:38Z</time>
      </trkpt>
      <trkpt lat="45.93796" lon="4.68474">
        <ele>330</ele>
        <time>2017-09-24T17:39:45Z</time>
      </trkpt>
      <trkpt lat="45.93786" lon="4.68482">
        <ele>331</ele>
        <time>2017-09-24T17:39:51Z</time>
      </trkpt>
      <trkpt lat="45.93776" lon="4.68491">
        <ele>332</ele>
        <time>2017-09-24T17:39:57Z</time>
      </trkpt>
      <trkpt lat="45.93764" lon="4.685">
        <ele>333</ele>
        <time>2017-09-24T17:40:04Z</time>
      </trkpt>
      <trkpt lat="45.93756" lon="4.68507">
        <ele>333</ele>
        <time>2017-09-24T17:40:09Z</time>
      </trkpt>
      <trkpt lat="45.93753" lon="4.68509">
        <ele>334</ele>
        <time>2017-09-24T17:40:11Z</time>
      </trkpt>
      <trkpt lat="45.93751" lon="4.6851">
        <ele>334</ele>
        <time>2017-09-24T17:40:12Z</time>
      </trkpt>
      <trkpt lat="45.93741" lon="4.68522">
        <ele>335</ele>
        <time>2017-09-24T17:40:20Z</time>
      </trkpt>
      <trkpt lat="45.9374" lon="4.6853">
        <ele>335</ele>
        <time>2017-09-24T17:40:24Z</time>
      </trkpt>
      <trkpt lat="45.9374" lon="4.68552">
        <ele>336</ele>
        <time>2017-09-24T17:40:33Z</time>
      </trkpt>
      <trkpt lat="45.9374" lon="4.6857">
        <ele>337</ele>
        <time>2017-09-24T17:40:40Z</time>
      </trkpt>
      <trkpt lat="45.93739" lon="4.68585">
        <ele>338</ele>
        <time>2017-09-24T17:40:46Z</time>
      </trkpt>
      <trkpt lat="45.93737" lon="4.68608">
        <ele>340</ele>
        <time>2017-09-24T17:40:55Z</time>
      </trkpt>
      <trkpt lat="45.93737" lon="4.68622">
        <ele>341</ele>
        <time>2017-09-24T17:41:01Z</time>
      </trkpt>
      <trkpt lat="45.93738" lon="4.68636">
        <ele>342</ele>
        <time>2017-09-24T17:41:07Z</time>
      </trkpt>
      <trkpt lat="45.9374" lon="4.6864">
        <ele>342</ele>
        <time>2017-09-24T17:41:09Z</time>
      </trkpt>
      <trkpt lat="45.93738" lon="4.68646">
        <ele>343</ele>
        <time>2017-09-24T17:41:13Z</time>
      </trkpt>
      <trkpt lat="45.93734" lon="4.68675">
        <ele>344</ele>
        <time>2017-09-24T17:41:25Z</time>
      </trkpt>
      <trkpt lat="45.93733" lon="4.68701">
        <ele>345</ele>
        <time>2017-09-24T17:41:34Z</time>
      </trkpt>
      <trkpt lat="45.93733" lon="4.68704">
        <ele>345</ele>
        <time>2017-09-24T17:41:35Z</time>
      </trkpt>
      <trkpt lat="45.93732" lon="4.68724">
        <ele>346</ele>
        <time>2017-09-24T17:41:42Z</time>
      </trkpt>
      <trkpt lat="45.93731" lon="4.68764">
        <ele>347</ele>
        <time>2017-09-24T17:41:57Z</time>
      </trkpt>
      <trkpt lat="45.93725" lon="4.6878">
        <ele>347</ele>
        <time>2017-09-24T17:42:04Z</time>
      </trkpt>
      <trkpt lat="45.93669" lon="4.68767">
        <ele>347</ele>
        <time>2017-09-24T17:42:23Z</time>
      </trkpt>
      <trkpt lat="45.93615" lon="4.68751">
        <ele>348</ele>
        <time>2017-09-24T17:42:39Z</time>
      </trkpt>
      <trkpt lat="45.93559" lon="4.68737">
        <ele>348</ele>
        <time>2017-09-24T17:42:54Z</time>
      </trkpt>
      <trkpt lat="45.93506" lon="4.68723">
        <ele>348</ele>
        <time>2017-09-24T17:43:07Z</time>
      </trkpt>
      <trkpt lat="45.93452" lon="4.68711">
        <ele>348</ele>
        <time>2017-09-24T17:43:19Z</time>
      </trkpt>
      <trkpt lat="45.934" lon="4.68699">
        <ele>348</ele>
        <time>2017-09-24T17:43:31Z</time>
      </trkpt>
      <trkpt lat="45.93343" lon="4.68685">
        <ele>348</ele>
        <time>2017-09-24T17:43:44Z</time>
      </trkpt>
      <trkpt lat="45.93288" lon="4.68673">
        <ele>349</ele>
        <time>2017-09-24T17:43:57Z</time>
      </trkpt>
      <trkpt lat="45.93267" lon="4.68668">
        <ele>349</ele>
        <time>2017-09-24T17:44:02Z</time>
      </trkpt>
      <trkpt lat="45.93212" lon="4.68655">
        <ele>350</ele>
        <time>2017-09-24T17:44:16Z</time>
      </trkpt>
      <trkpt lat="45.93178" lon="4.68595">
        <ele>350</ele>
        <time>2017-09-24T17:44:32Z</time>
      </trkpt>
      <trkpt lat="45.93143" lon="4.68541">
        <ele>349</ele>
        <time>2017-09-24T17:44:49Z</time>
      </trkpt>
      <trkpt lat="45.93142" lon="4.68528">
        <ele>348</ele>
        <time>2017-09-24T17:44:51Z</time>
      </trkpt>
      <trkpt lat="45.93142" lon="4.68514">
        <ele>348</ele>
        <time>2017-09-24T17:44:53Z</time>
      </trkpt>
      <trkpt lat="45.93143" lon="4.6849">
        <ele>347</ele>
        <time>2017-09-24T17:44:56Z</time>
      </trkpt>
      <trkpt lat="45.93147" lon="4.68462">
        <ele>345</ele>
        <time>2017-09-24T17:44:59Z</time>
      </trkpt>
      <trkpt lat="45.93152" lon="4.6843">
        <ele>344</ele>
        <time>2017-09-24T17:45:02Z</time>
      </trkpt>
      <trkpt lat="45.93155" lon="4.68406">
        <ele>342</ele>
        <time>2017-09-24T17:45:04Z</time>
      </trkpt>
      <trkpt lat="45.93156" lon="4.68381">
        <ele>341</ele>
        <time>2017-09-24T17:45:06Z</time>
      </trkpt>
      <trkpt lat="45.93153" lon="4.68355">
        <ele>339</ele>
        <time>2017-09-24T17:45:08Z</time>
      </trkpt>
      <trkpt lat="45.93147" lon="4.68329">
        <ele>338</ele>
        <time>2017-09-24T17:45:10Z</time>
      </trkpt>
      <trkpt lat="45.93138" lon="4.68302">
        <ele>336</ele>
        <time>2017-09-24T17:45:12Z</time>
      </trkpt>
      <trkpt lat="45.93128" lon="4.68275">
        <ele>334</ele>
        <time>2017-09-24T17:45:14Z</time>
      </trkpt>
      <trkpt lat="45.93119" lon="4.68248">
        <ele>332</ele>
        <time>2017-09-24T17:45:16Z</time>
      </trkpt>
      <trkpt lat="45.93116" lon="4.68234">
        <ele>331</ele>
        <time>2017-09-24T17:45:17Z</time>
      </trkpt>
      <trkpt lat="45.93113" lon="4.6822">
        <ele>330</ele>
        <time>2017-09-24T17:45:18Z</time>
      </trkpt>
      <trkpt lat="45.93112" lon="4.68191">
        <ele>328</ele>
        <time>2017-09-24T17:45:20Z</time>
      </trkpt>
      <trkpt lat="45.93113" lon="4.68176">
        <ele>327</ele>
        <time>2017-09-24T17:45:21Z</time>
      </trkpt>
      <trkpt lat="45.93114" lon="4.68161">
        <ele>326</ele>
        <time>2017-09-24T17:45:22Z</time>
      </trkpt>
      <trkpt lat="45.93115" lon="4.68145">
        <ele>324</ele>
        <time>2017-09-24T17:45:23Z</time>
      </trkpt>
      <trkpt lat="45.93117" lon="4.68129">
        <ele>323</ele>
        <time>2017-09-24T17:45:24Z</time>
      </trkpt>
      <trkpt lat="45.93118" lon="4.68113">
        <ele>322</ele>
        <time>2017-09-24T17:45:25Z</time>
      </trkpt>
      <trkpt lat="45.9312" lon="4.68097">
        <ele>320</ele>
        <time>2017-09-24T17:45:26Z</time>
      </trkpt>
      <trkpt lat="45.93122" lon="4.68082">
        <ele>319</ele>
        <time>2017-09-24T17:45:27Z</time>
      </trkpt>
      <trkpt lat="45.93123" lon="4.68065">
        <ele>318</ele>
        <time>2017-09-24T17:45:28Z</time>
      </trkpt>
      <trkpt lat="45.93124" lon="4.68033">
        <ele>316</ele>
        <time>2017-09-24T17:45:30Z</time>
      </trkpt>
      <trkpt lat="45.93123" lon="4.68017">
        <ele>315</ele>
        <time>2017-09-24T17:45:31Z</time>
      </trkpt>
      <trkpt lat="45.93122" lon="4.68001">
        <ele>314</ele>
        <time>2017-09-24T17:45:32Z</time>
      </trkpt>
      <trkpt lat="45.93121" lon="4.67969">
        <ele>312</ele>
        <time>2017-09-24T17:45:34Z</time>
      </trkpt>
      <trkpt lat="45.93119" lon="4.67939">
        <ele>310</ele>
        <time>2017-09-24T17:45:36Z</time>
      </trkpt>
      <trkpt lat="45.93119" lon="4.67909">
        <ele>309</ele>
        <time>2017-09-24T17:45:38Z</time>
      </trkpt>
      <trkpt lat="45.93118" lon="4.67895">
        <ele>308</ele>
        <time>2017-09-24T17:45:39Z</time>
      </trkpt>
      <trkpt lat="45.93118" lon="4.6788">
        <ele>307</ele>
        <time>2017-09-24T17:45:40Z</time>
      </trkpt>
      <trkpt lat="45.9312" lon="4.67851">
        <ele>305</ele>
        <time>2017-09-24T17:45:42Z</time>
      </trkpt>
      <trkpt lat="45.93124" lon="4.67822">
        <ele>303</ele>
        <time>2017-09-24T17:45:44Z</time>
      </trkpt>
      <trkpt lat="45.93127" lon="4.67807">
        <ele>302</ele>
        <time>2017-09-24T17:45:45Z</time>
      </trkpt>
      <trkpt lat="45.93129" lon="4.67793">
        <ele>301</ele>
        <time>2017-09-24T17:45:46Z</time>
      </trkpt>
      <trkpt lat="45.93132" lon="4.67779">
        <ele>300</ele>
        <time>2017-09-24T17:45:47Z</time>
      </trkpt>
      <trkpt lat="45.93135" lon="4.67765">
        <ele>299</ele>
        <time>2017-09-24T17:45:48Z</time>
      </trkpt>
      <trkpt lat="45.93137" lon="4.67751">
        <ele>298</ele>
        <time>2017-09-24T17:45:49Z</time>
      </trkpt>
      <trkpt lat="45.9314" lon="4.67737">
        <ele>297</ele>
        <time>2017-09-24T17:45:50Z</time>
      </trkpt>
      <trkpt lat="45.93145" lon="4.67711">
        <ele>295</ele>
        <time>2017-09-24T17:45:52Z</time>
      </trkpt>
      <trkpt lat="45.93149" lon="4.67685">
        <ele>294</ele>
        <time>2017-09-24T17:45:54Z</time>
      </trkpt>
      <trkpt lat="45.93153" lon="4.67636">
        <ele>293</ele>
        <time>2017-09-24T17:45:58Z</time>
      </trkpt>
      <trkpt lat="45.93152" lon="4.6761">
        <ele>292</ele>
        <time>2017-09-24T17:46:00Z</time>
      </trkpt>
      <trkpt lat="45.9315" lon="4.67598">
        <ele>292</ele>
        <time>2017-09-24T17:46:01Z</time>
      </trkpt>
      <trkpt lat="45.93145" lon="4.67575">
        <ele>291</ele>
        <time>2017-09-24T17:46:03Z</time>
      </trkpt>
      <trkpt lat="45.93133" lon="4.67521">
        <ele>290</ele>
        <time>2017-09-24T17:46:08Z</time>
      </trkpt>
      <trkpt lat="45.93129" lon="4.67504">
        <ele>290</ele>
        <time>2017-09-24T17:46:10Z</time>
      </trkpt>
      <trkpt lat="45.93125" lon="4.6749">
        <ele>291</ele>
        <time>2017-09-24T17:46:12Z</time>
      </trkpt>
      <trkpt lat="45.93118" lon="4.67479">
        <ele>292</ele>
        <time>2017-09-24T17:46:15Z</time>
      </trkpt>
      <trkpt lat="45.93112" lon="4.67473">
        <ele>294</ele>
        <time>2017-09-24T17:46:18Z</time>
      </trkpt>
      <trkpt lat="45.93106" lon="4.67467">
        <ele>295</ele>
        <time>2017-09-24T17:46:22Z</time>
      </trkpt>
      <trkpt lat="45.931" lon="4.67464">
        <ele>296</ele>
        <time>2017-09-24T17:46:26Z</time>
      </trkpt>
      <trkpt lat="45.93093" lon="4.67454">
        <ele>297</ele>
        <time>2017-09-24T17:46:36Z</time>
      </trkpt>
      <trkpt lat="45.93091" lon="4.67451">
        <ele>297</ele>
        <time>2017-09-24T17:46:39Z</time>
      </trkpt>
      <trkpt lat="45.93086" lon="4.67441">
        <ele>298</ele>
        <time>2017-09-24T17:46:47Z</time>
      </trkpt>
      <trkpt lat="45.93081" lon="4.67432">
        <ele>299</ele>
        <time>2017-09-24T17:46:54Z</time>
      </trkpt>
      <trkpt lat="45.9308" lon="4.67427">
        <ele>300</ele>
        <time>2017-09-24T17:47:11Z</time>
      </trkpt>
      <trkpt lat="45.93072" lon="4.67415">
        <ele>301</ele>
        <time>2017-09-24T17:47:23Z</time>
      </trkpt>
      <trkpt lat="45.93067" lon="4.67407">
        <ele>301</ele>
        <time>2017-09-24T17:47:41Z</time>
      </trkpt>
      <trkpt lat="45.93061" lon="4.67399">
        <ele>302</ele>
        <time>2017-09-24T17:47:48Z</time>
      </trkpt>
      <trkpt lat="45.93056" lon="4.67393">
        <ele>303</ele>
        <time>2017-09-24T17:47:54Z</time>
      </trkpt>
      <trkpt lat="45.93055" lon="4.67392">
        <ele>303</ele>
        <time>2017-09-24T17:47:56Z</time>
      </trkpt>
      <trkpt lat="45.93051" lon="4.67387">
        <ele>304</ele>
        <time>2017-09-24T17:48:00Z</time>
      </trkpt>
      <trkpt lat="45.93046" lon="4.67382">
        <ele>304</ele>
        <time>2017-09-24T17:48:04Z</time>
      </trkpt>
      <trkpt lat="45.93033" lon="4.6737">
        <ele>305</ele>
        <time>2017-09-24T17:48:13Z</time>
      </trkpt>
      <trkpt lat="45.93023" lon="4.67363">
        <ele>307</ele>
        <time>2017-09-24T17:48:20Z</time>
      </trkpt>
      <trkpt lat="45.93013" lon="4.67357">
        <ele>308</ele>
        <time>2017-09-24T17:48:27Z</time>
      </trkpt>
      <trkpt lat="45.93002" lon="4.6735">
        <ele>309</ele>
        <time>2017-09-24T17:48:35Z</time>
      </trkpt>
      <trkpt lat="45.9299" lon="4.67342">
        <ele>310</ele>
        <time>2017-09-24T17:48:43Z</time>
      </trkpt>
      <trkpt lat="45.92979" lon="4.67335">
        <ele>311</ele>
        <time>2017-09-24T17:48:51Z</time>
      </trkpt>
      <trkpt lat="45.92969" lon="4.6733">
        <ele>312</ele>
        <time>2017-09-24T17:48:58Z</time>
      </trkpt>
      <trkpt lat="45.92954" lon="4.6732">
        <ele>313</ele>
        <time>2017-09-24T17:49:08Z</time>
      </trkpt>
      <trkpt lat="45.92946" lon="4.67309">
        <ele>314</ele>
        <time>2017-09-24T17:49:18Z</time>
      </trkpt>
      <trkpt lat="45.92941" lon="4.67296">
        <ele>315</ele>
        <time>2017-09-24T17:49:26Z</time>
      </trkpt>
      <trkpt lat="45.92935" lon="4.67285">
        <ele>316</ele>
        <time>2017-09-24T17:49:34Z</time>
      </trkpt>
      <trkpt lat="45.92931" lon="4.67275">
        <ele>317</ele>
        <time>2017-09-24T17:49:41Z</time>
      </trkpt>
      <trkpt lat="45.92927" lon="4.67259">
        <ele>318</ele>
        <time>2017-09-24T17:49:50Z</time>
      </trkpt>
      <trkpt lat="45.92927" lon="4.67249">
        <ele>319</ele>
        <time>2017-09-24T17:49:56Z</time>
      </trkpt>
      <trkpt lat="45.92928" lon="4.67237">
        <ele>320</ele>
        <time>2017-09-24T17:50:02Z</time>
      </trkpt>
      <trkpt lat="45.9293" lon="4.67228">
        <ele>321</ele>
        <time>2017-09-24T17:50:07Z</time>
      </trkpt>
      <trkpt lat="45.92933" lon="4.67218">
        <ele>322</ele>
        <time>2017-09-24T17:50:13Z</time>
      </trkpt>
      <trkpt lat="45.92934" lon="4.67214">
        <ele>323</ele>
        <time>2017-09-24T17:50:20Z</time>
      </trkpt>
      <trkpt lat="45.92934" lon="4.67212">
        <ele>323</ele>
        <time>2017-09-24T17:50:25Z</time>
      </trkpt>
      <trkpt lat="45.92936" lon="4.67194">
        <ele>324</ele>
        <time>2017-09-24T17:50:37Z</time>
      </trkpt>
      <trkpt lat="45.92936" lon="4.67188">
        <ele>325</ele>
        <time>2017-09-24T17:50:40Z</time>
      </trkpt>
      <trkpt lat="45.92933" lon="4.67166">
        <ele>326</ele>
        <time>2017-09-24T17:50:49Z</time>
      </trkpt>
      <trkpt lat="45.92932" lon="4.67141">
        <ele>327</ele>
        <time>2017-09-24T17:50:59Z</time>
      </trkpt>
      <trkpt lat="45.92935" lon="4.67114">
        <ele>328</ele>
        <time>2017-09-24T17:51:09Z</time>
      </trkpt>
      <trkpt lat="45.9294" lon="4.67089">
        <ele>329</ele>
        <time>2017-09-24T17:51:20Z</time>
      </trkpt>
      <trkpt lat="45.92945" lon="4.67064">
        <ele>330</ele>
        <time>2017-09-24T17:51:31Z</time>
      </trkpt>
      <trkpt lat="45.92947" lon="4.67056">
        <ele>330</ele>
        <time>2017-09-24T17:51:34Z</time>
      </trkpt>
      <trkpt lat="45.92954" lon="4.67013">
        <ele>331</ele>
        <time>2017-09-24T17:51:49Z</time>
      </trkpt>
      <trkpt lat="45.92955" lon="4.66977">
        <ele>331</ele>
        <time>2017-09-24T17:52:02Z</time>
      </trkpt>
      <trkpt lat="45.92948" lon="4.66957">
        <ele>331</ele>
        <time>2017-09-24T17:52:09Z</time>
      </trkpt>
      <trkpt lat="45.92938" lon="4.66937">
        <ele>332</ele>
        <time>2017-09-24T17:52:17Z</time>
      </trkpt>
      <trkpt lat="45.92927" lon="4.6691">
        <ele>333</ele>
        <time>2017-09-24T17:52:26Z</time>
      </trkpt>
      <trkpt lat="45.92925" lon="4.66907">
        <ele>333</ele>
        <time>2017-09-24T17:52:27Z</time>
      </trkpt>
      <trkpt lat="45.92897" lon="4.66844">
        <ele>334</ele>
        <time>2017-09-24T17:52:46Z</time>
      </trkpt>
      <trkpt lat="45.92869" lon="4.66815">
        <ele>335</ele>
        <time>2017-09-24T17:53:00Z</time>
      </trkpt>
      <trkpt lat="45.9284" lon="4.66793">
        <ele>336</ele>
        <time>2017-09-24T17:53:15Z</time>
      </trkpt>
      <trkpt lat="45.92831" lon="4.66786">
        <ele>336</ele>
        <time>2017-09-24T17:53:20Z</time>
      </trkpt>
      <trkpt lat="45.92798" lon="4.66756">
        <ele>337</ele>
        <time>2017-09-24T17:53:39Z</time>
      </trkpt>
      <trkpt lat="45.92769" lon="4.66724">
        <ele>338</ele>
        <time>2017-09-24T17:53:54Z</time>
      </trkpt>
      <trkpt lat="45.9276" lon="4.6672">
        <ele>338</ele>
        <time>2017-09-24T17:53:58Z</time>
      </trkpt>
      <trkpt lat="45.92746" lon="4.66717">
        <ele>338</ele>
        <time>2017-09-24T17:54:04Z</time>
      </trkpt>
      <trkpt lat="45.92741" lon="4.66718">
        <ele>339</ele>
        <time>2017-09-24T17:54:06Z</time>
      </trkpt>
      <trkpt lat="45.92717" lon="4.66717">
        <ele>339</ele>
        <time>2017-09-24T17:54:16Z</time>
      </trkpt>
      <trkpt lat="45.92678" lon="4.66724">
        <ele>340</ele>
        <time>2017-09-24T17:54:33Z</time>
      </trkpt>
      <trkpt lat="45.92654" lon="4.66729">
        <ele>341</ele>
        <time>2017-09-24T17:54:46Z</time>
      </trkpt>
      <trkpt lat="45.92651" lon="4.66729">
        <ele>341</ele>
        <time>2017-09-24T17:54:48Z</time>
      </trkpt>
      <trkpt lat="45.92648" lon="4.66725">
        <ele>342</ele>
        <time>2017-09-24T17:54:50Z</time>
      </trkpt>
      <trkpt lat="45.92648" lon="4.66685">
        <ele>342</ele>
        <time>2017-09-24T17:55:04Z</time>
      </trkpt>
      <trkpt lat="45.92643" lon="4.66607">
        <ele>343</ele>
        <time>2017-09-24T17:55:27Z</time>
      </trkpt>
      <trkpt lat="45.92642" lon="4.66575">
        <ele>342</ele>
        <time>2017-09-24T17:55:33Z</time>
      </trkpt>
      <trkpt lat="45.92639" lon="4.66538">
        <ele>341</ele>
        <time>2017-09-24T17:55:40Z</time>
      </trkpt>
      <trkpt lat="45.92637" lon="4.66504">
        <ele>341</ele>
        <time>2017-09-24T17:56:02Z</time>
      </trkpt>
      <trkpt lat="45.92634" lon="4.66502">
        <ele>341</ele>
        <time>2017-09-24T17:56:35Z</time>
      </trkpt>
      <trkpt lat="45.92603" lon="4.66475">
        <ele>340</ele>
        <time>2017-09-24T17:57:26Z</time>
      </trkpt>
      <trkpt lat="45.92553" lon="4.66443">
        <ele>339</ele>
        <time>2017-09-24T17:57:42Z</time>
      </trkpt>
      <trkpt lat="45.92516" lon="4.6641">
        <ele>338</ele>
        <time>2017-09-24T17:57:55Z</time>
      </trkpt>
      <trkpt lat="45.92486" lon="4.66388">
        <ele>337</ele>
        <time>2017-09-24T17:58:03Z</time>
      </trkpt>
      <trkpt lat="45.92468" lon="4.66376">
        <ele>336</ele>
        <time>2017-09-24T17:58:07Z</time>
      </trkpt>
      <trkpt lat="45.92445" lon="4.6636">
        <ele>335</ele>
        <time>2017-09-24T17:58:12Z</time>
      </trkpt>
      <trkpt lat="45.92417" lon="4.6634">
        <ele>334</ele>
        <time>2017-09-24T17:58:17Z</time>
      </trkpt>
      <trkpt lat="45.92393" lon="4.66323">
        <ele>333</ele>
        <time>2017-09-24T17:58:21Z</time>
      </trkpt>
      <trkpt lat="45.92375" lon="4.6631">
        <ele>331</ele>
        <time>2017-09-24T17:58:24Z</time>
      </trkpt>
      <trkpt lat="45.92347" lon="4.66291">
        <ele>330</ele>
        <time>2017-09-24T17:58:28Z</time>
      </trkpt>
      <trkpt lat="45.92333" lon="4.66281">
        <ele>329</ele>
        <time>2017-09-24T17:58:30Z</time>
      </trkpt>
      <trkpt lat="45.92319" lon="4.66271">
        <ele>327</ele>
        <time>2017-09-24T17:58:32Z</time>
      </trkpt>
      <trkpt lat="45.92298" lon="4.66257">
        <ele>326</ele>
        <time>2017-09-24T17:58:35Z</time>
      </trkpt>
      <trkpt lat="45.92259" lon="4.66232">
        <ele>325</ele>
        <time>2017-09-24T17:58:41Z</time>
      </trkpt>
      <trkpt lat="45.92253" lon="4.66228">
        <ele>325</ele>
        <time>2017-09-24T17:58:42Z</time>
      </trkpt>
      <trkpt lat="45.92222" lon="4.66206">
        <ele>324</ele>
        <time>2017-09-24T17:58:47Z</time>
      </trkpt>
      <trkpt lat="45.92173" lon="4.6617">
        <ele>323</ele>
        <time>2017-09-24T17:58:55Z</time>
      </trkpt>
      <trkpt lat="45.9215" lon="4.66152">
        <ele>323</ele>
        <time>2017-09-24T17:58:59Z</time>
      </trkpt>
      <trkpt lat="45.92119" lon="4.66132">
        <ele>322</ele>
        <time>2017-09-24T17:59:05Z</time>
      </trkpt>
      <trkpt lat="45.92066" lon="4.66099">
        <ele>322</ele>
        <time>2017-09-24T17:59:16Z</time>
      </trkpt>
      <trkpt lat="45.92041" lon="4.66083">
        <ele>321</ele>
        <time>2017-09-24T17:59:22Z</time>
      </trkpt>
      <trkpt lat="45.92013" lon="4.66061">
        <ele>320</ele>
        <time>2017-09-24T17:59:28Z</time>
      </trkpt>
      <trkpt lat="45.91983" lon="4.66037">
        <ele>319</ele>
        <time>2017-09-24T17:59:35Z</time>
      </trkpt>
      <trkpt lat="45.91959" lon="4.66019">
        <ele>318</ele>
        <time>2017-09-24T17:59:40Z</time>
      </trkpt>
      <trkpt lat="45.91939" lon="4.66005">
        <ele>318</ele>
        <time>2017-09-24T17:59:44Z</time>
      </trkpt>
      <trkpt lat="45.91923" lon="4.65993">
        <ele>318</ele>
        <time>2017-09-24T17:59:48Z</time>
      </trkpt>
      <trkpt lat="45.91872" lon="4.65955">
        <ele>318</ele>
        <time>2017-09-24T18:00:00Z</time>
      </trkpt>
      <trkpt lat="45.91853" lon="4.65942">
        <ele>319</ele>
        <time>2017-09-24T18:00:06Z</time>
      </trkpt>
      <trkpt lat="45.9185" lon="4.6594">
        <ele>319</ele>
        <time>2017-09-24T18:00:07Z</time>
      </trkpt>
      <trkpt lat="45.9182" lon="4.6592">
        <ele>320</ele>
        <time>2017-09-24T18:00:17Z</time>
      </trkpt>
      <trkpt lat="45.91779" lon="4.65888">
        <ele>321</ele>
        <time>2017-09-24T18:00:33Z</time>
      </trkpt>
      <trkpt lat="45.91728" lon="4.65851">
        <ele>320</ele>
        <time>2017-09-24T18:00:49Z</time>
      </trkpt>
      <trkpt lat="45.91725" lon="4.65849">
        <ele>320</ele>
        <time>2017-09-24T18:00:50Z</time>
      </trkpt>
      <trkpt lat="45.91697" lon="4.6583">
        <ele>320</ele>
        <time>2017-09-24T18:00:58Z</time>
      </trkpt>
      <trkpt lat="45.91669" lon="4.65813">
        <ele>319</ele>
        <time>2017-09-24T18:01:06Z</time>
      </trkpt>
      <trkpt lat="45.91679" lon="4.65783">
        <ele>318</ele>
        <time>2017-09-24T18:01:38Z</time>
      </trkpt>
      <trkpt lat="45.91698" lon="4.65753">
        <ele>317</ele>
        <time>2017-09-24T18:01:45Z</time>
      </trkpt>
      <trkpt lat="45.91713" lon="4.65728">
        <ele>316</ele>
        <time>2017-09-24T18:01:50Z</time>
      </trkpt>
      <trkpt lat="45.91725" lon="4.65706">
        <ele>315</ele>
        <time>2017-09-24T18:01:54Z</time>
      </trkpt>
      <trkpt lat="45.91728" lon="4.65699">
        <ele>315</ele>
        <time>2017-09-24T18:01:55Z</time>
      </trkpt>
      <trkpt lat="45.91734" lon="4.65674">
        <ele>313</ele>
        <time>2017-09-24T18:01:58Z</time>
      </trkpt>
      <trkpt lat="45.91741" lon="4.65646">
        <ele>312</ele>
        <time>2017-09-24T18:02:01Z</time>
      </trkpt>
      <trkpt lat="45.91745" lon="4.65624">
        <ele>311</ele>
        <time>2017-09-24T18:02:03Z</time>
      </trkpt>
      <trkpt lat="45.91751" lon="4.65604">
        <ele>309</ele>
        <time>2017-09-24T18:02:05Z</time>
      </trkpt>
      <trkpt lat="45.91755" lon="4.65585">
        <ele>308</ele>
        <time>2017-09-24T18:02:07Z</time>
      </trkpt>
      <trkpt lat="45.91764" lon="4.65573">
        <ele>306</ele>
        <time>2017-09-24T18:02:09Z</time>
      </trkpt>
      <trkpt lat="45.91776" lon="4.65568">
        <ele>305</ele>
        <time>2017-09-24T18:02:11Z</time>
      </trkpt>
      <trkpt lat="45.91783" lon="4.65567">
        <ele>304</ele>
        <time>2017-09-24T18:02:12Z</time>
      </trkpt>
      <trkpt lat="45.91789" lon="4.65567">
        <ele>303</ele>
        <time>2017-09-24T18:02:13Z</time>
      </trkpt>
      <trkpt lat="45.91795" lon="4.65568">
        <ele>303</ele>
        <time>2017-09-24T18:02:14Z</time>
      </trkpt>
      <trkpt lat="45.91817" lon="4.65566">
        <ele>302</ele>
        <time>2017-09-24T18:02:18Z</time>
      </trkpt>
      <trkpt lat="45.91856" lon="4.65559">
        <ele>301</ele>
        <time>2017-09-24T18:02:25Z</time>
      </trkpt>
      <trkpt lat="45.91883" lon="4.65554">
        <ele>300</ele>
        <time>2017-09-24T18:02:30Z</time>
      </trkpt>
      <trkpt lat="45.91903" lon="4.6555">
        <ele>299</ele>
        <time>2017-09-24T18:02:34Z</time>
      </trkpt>
      <trkpt lat="45.91913" lon="4.65548">
        <ele>299</ele>
        <time>2017-09-24T18:02:36Z</time>
      </trkpt>
      <trkpt lat="45.91922" lon="4.65542">
        <ele>299</ele>
        <time>2017-09-24T18:02:38Z</time>
      </trkpt>
      <trkpt lat="45.91929" lon="4.65531">
        <ele>298</ele>
        <time>2017-09-24T18:02:40Z</time>
      </trkpt>
      <trkpt lat="45.91932" lon="4.65524">
        <ele>298</ele>
        <time>2017-09-24T18:02:41Z</time>
      </trkpt>
      <trkpt lat="45.91936" lon="4.65513">
        <ele>297</ele>
        <time>2017-09-24T18:02:43Z</time>
      </trkpt>
      <trkpt lat="45.91941" lon="4.655">
        <ele>296</ele>
        <time>2017-09-24T18:02:46Z</time>
      </trkpt>
      <trkpt lat="45.91945" lon="4.6549">
        <ele>295</ele>
        <time>2017-09-24T18:02:50Z</time>
      </trkpt>
      <trkpt lat="45.91955" lon="4.65463">
        <ele>293</ele>
        <time>2017-09-24T18:02:58Z</time>
      </trkpt>
      <trkpt lat="45.9196" lon="4.65447">
        <ele>292</ele>
        <time>2017-09-24T18:03:01Z</time>
      </trkpt>
      <trkpt lat="45.9197" lon="4.6537">
        <ele>293</ele>
        <time>2017-09-24T18:03:22Z</time>
      </trkpt>
      <trkpt lat="45.9197" lon="4.65362">
        <ele>294</ele>
        <time>2017-09-24T18:03:25Z</time>
      </trkpt>
      <trkpt lat="45.9197" lon="4.6535">
        <ele>296</ele>
        <time>2017-09-24T18:03:29Z</time>
      </trkpt>
      <trkpt lat="45.91971" lon="4.65333">
        <ele>297</ele>
        <time>2017-09-24T18:03:35Z</time>
      </trkpt>
      <trkpt lat="45.91976" lon="4.65312">
        <ele>298</ele>
        <time>2017-09-24T18:03:42Z</time>
      </trkpt>
      <trkpt lat="45.91981" lon="4.65292">
        <ele>299</ele>
        <time>2017-09-24T18:03:49Z</time>
      </trkpt>
      <trkpt lat="45.91986" lon="4.65278">
        <ele>300</ele>
        <time>2017-09-24T18:03:54Z</time>
      </trkpt>
      <trkpt lat="45.91992" lon="4.65257">
        <ele>301</ele>
        <time>2017-09-24T18:04:03Z</time>
      </trkpt>
      <trkpt lat="45.91999" lon="4.65235">
        <ele>302</ele>
        <time>2017-09-24T18:04:13Z</time>
      </trkpt>
      <trkpt lat="45.92006" lon="4.65213">
        <ele>303</ele>
        <time>2017-09-24T18:04:22Z</time>
      </trkpt>
      <trkpt lat="45.92013" lon="4.65189">
        <ele>304</ele>
        <time>2017-09-24T18:04:31Z</time>
      </trkpt>
      <trkpt lat="45.92022" lon="4.65161">
        <ele>305</ele>
        <time>2017-09-24T18:04:42Z</time>
      </trkpt>
      <trkpt lat="45.92031" lon="4.65133">
        <ele>306</ele>
        <time>2017-09-24T18:04:52Z</time>
      </trkpt>
      <trkpt lat="45.92044" lon="4.65098">
        <ele>307</ele>
        <time>2017-09-24T18:05:04Z</time>
      </trkpt>
      <trkpt lat="45.92061" lon="4.65063">
        <ele>309</ele>
        <time>2017-09-24T18:05:17Z</time>
      </trkpt>
      <trkpt lat="45.92069" lon="4.65035">
        <ele>310</ele>
        <time>2017-09-24T18:05:26Z</time>
      </trkpt>
      <trkpt lat="45.9208" lon="4.65002">
        <ele>311</ele>
        <time>2017-09-24T18:05:36Z</time>
      </trkpt>
      <trkpt lat="45.92096" lon="4.64962">
        <ele>312</ele>
        <time>2017-09-24T18:05:49Z</time>
      </trkpt>
      <trkpt lat="45.92097" lon="4.64959">
        <ele>312</ele>
        <time>2017-09-24T18:05:50Z</time>
      </trkpt>
      <trkpt lat="45.92114" lon="4.64908">
        <ele>313</ele>
        <time>2017-09-24T18:06:06Z</time>
      </trkpt>
      <trkpt lat="45.92129" lon="4.64862">
        <ele>314</ele>
        <time>2017-09-24T18:06:20Z</time>
      </trkpt>
      <trkpt lat="45.92144" lon="4.64814">
        <ele>315</ele>
        <time>2017-09-24T18:06:34Z</time>
      </trkpt>
      <trkpt lat="45.92165" lon="4.64761">
        <ele>316</ele>
        <time>2017-09-24T18:06:50Z</time>
      </trkpt>
      <trkpt lat="45.92178" lon="4.64712">
        <ele>317</ele>
        <time>2017-09-24T18:07:03Z</time>
      </trkpt>
      <trkpt lat="45.92191" lon="4.64678">
        <ele>318</ele>
        <time>2017-09-24T18:07:13Z</time>
      </trkpt>
      <trkpt lat="45.92201" lon="4.64651">
        <ele>319</ele>
        <time>2017-09-24T18:07:21Z</time>
      </trkpt>
      <trkpt lat="45.92213" lon="4.6462">
        <ele>320</ele>
        <time>2017-09-24T18:07:30Z</time>
      </trkpt>
      <trkpt lat="45.92231" lon="4.64577">
        <ele>321</ele>
        <time>2017-09-24T18:07:42Z</time>
      </trkpt>
      <trkpt lat="45.92242" lon="4.64553">
        <ele>322</ele>
        <time>2017-09-24T18:07:50Z</time>
      </trkpt>
      <trkpt lat="45.92242" lon="4.64552">
        <ele>322</ele>
        <time>2017-09-24T18:07:52Z</time>
      </trkpt>
      <trkpt lat="45.92242" lon="4.64551">
        <ele>323</ele>
        <time>2017-09-24T18:08:11Z</time>
      </trkpt>
      <trkpt lat="45.92254" lon="4.64512">
        <ele>323</ele>
        <time>2017-09-24T18:08:30Z</time>
      </trkpt>
      <trkpt lat="45.92258" lon="4.64486">
        <ele>324</ele>
        <time>2017-09-24T18:08:43Z</time>
      </trkpt>
      <trkpt lat="45.92262" lon="4.64461">
        <ele>325</ele>
        <time>2017-09-24T18:08:57Z</time>
      </trkpt>
      <trkpt lat="45.92263" lon="4.64457">
        <ele>325</ele>
        <time>2017-09-24T18:08:59Z</time>
      </trkpt>
      <trkpt lat="45.92265" lon="4.64446">
        <ele>325</ele>
        <time>2017-09-24T18:09:05Z</time>
      </trkpt>
      <trkpt lat="45.92277" lon="4.64397">
        <ele>326</ele>
        <time>2017-09-24T18:09:20Z</time>
      </trkpt>
      <trkpt lat="45.92281" lon="4.64358">
        <ele>327</ele>
        <time>2017-09-24T18:09:30Z</time>
      </trkpt>
      <trkpt lat="45.92284" lon="4.64318">
        <ele>328</ele>
        <time>2017-09-24T18:09:40Z</time>
      </trkpt>
      <trkpt lat="45.92294" lon="4.64264">
        <ele>329</ele>
        <time>2017-09-24T18:09:53Z</time>
      </trkpt>
      <trkpt lat="45.92305" lon="4.64226">
        <ele>331</ele>
        <time>2017-09-24T18:10:03Z</time>
      </trkpt>
      <trkpt lat="45.92322" lon="4.64193">
        <ele>332</ele>
        <time>2017-09-24T18:10:13Z</time>
      </trkpt>
      <trkpt lat="45.92345" lon="4.64165">
        <ele>333</ele>
        <time>2017-09-24T18:10:23Z</time>
      </trkpt>
      <trkpt lat="45.92374" lon="4.64138">
        <ele>334</ele>
        <time>2017-09-24T18:10:34Z</time>
      </trkpt>
      <trkpt lat="45.92401" lon="4.64115">
        <ele>335</ele>
        <time>2017-09-24T18:10:44Z</time>
      </trkpt>
      <trkpt lat="45.92433" lon="4.64079">
        <ele>336</ele>
        <time>2017-09-24T18:10:57Z</time>
      </trkpt>
      <trkpt lat="45.92457" lon="4.64047">
        <ele>337</ele>
        <time>2017-09-24T18:11:08Z</time>
      </trkpt>
      <trkpt lat="45.92495" lon="4.63992">
        <ele>338</ele>
        <time>2017-09-24T18:11:27Z</time>
      </trkpt>
      <trkpt lat="45.9251" lon="4.63971">
        <ele>338</ele>
        <time>2017-09-24T18:11:33Z</time>
      </trkpt>
      <trkpt lat="45.92555" lon="4.63928">
        <ele>338</ele>
        <time>2017-09-24T18:11:49Z</time>
      </trkpt>
      <trkpt lat="45.92594" lon="4.63869">
        <ele>338</ele>
        <time>2017-09-24T18:12:05Z</time>
      </trkpt>
      <trkpt lat="45.92627" lon="4.63805">
        <ele>339</ele>
        <time>2017-09-24T18:12:23Z</time>
      </trkpt>
      <trkpt lat="45.92632" lon="4.63797">
        <ele>339</ele>
        <time>2017-09-24T18:12:30Z</time>
      </trkpt>
      <trkpt lat="45.92633" lon="4.63797">
        <ele>339</ele>
        <time>2017-09-24T18:12:39Z</time>
      </trkpt>
      <trkpt lat="45.92672" lon="4.63742">
        <ele>338</ele>
        <time>2017-09-24T18:13:05Z</time>
      </trkpt>
      <trkpt lat="45.92683" lon="4.63728">
        <ele>338</ele>
        <time>2017-09-24T18:13:11Z</time>
      </trkpt>
      <trkpt lat="45.92684" lon="4.63721">
        <ele>338</ele>
        <time>2017-09-24T18:13:14Z</time>
      </trkpt>
      <trkpt lat="45.92703" lon="4.63702">
        <ele>338</ele>
        <time>2017-09-24T18:13:21Z</time>
      </trkpt>
      <trkpt lat="45.92744" lon="4.6365">
        <ele>337</ele>
        <time>2017-09-24T18:13:33Z</time>
      </trkpt>
      <trkpt lat="45.92754" lon="4.63635">
        <ele>337</ele>
        <time>2017-09-24T18:13:36Z</time>
      </trkpt>
      <trkpt lat="45.92759" lon="4.63624">
        <ele>337</ele>
        <time>2017-09-24T18:13:38Z</time>
      </trkpt>
      <trkpt lat="45.92765" lon="4.63605">
        <ele>337</ele>
        <time>2017-09-24T18:13:41Z</time>
      </trkpt>
      <trkpt lat="45.92765" lon="4.63528">
        <ele>338</ele>
        <time>2017-09-24T18:13:53Z</time>
      </trkpt>
      <trkpt lat="45.92767" lon="4.6349">
        <ele>339</ele>
        <time>2017-09-24T18:14:01Z</time>
      </trkpt>
      <trkpt lat="45.92766" lon="4.63433">
        <ele>340</ele>
        <time>2017-09-24T18:14:13Z</time>
      </trkpt>
      <trkpt lat="45.92761" lon="4.63378">
        <ele>341</ele>
        <time>2017-09-24T18:14:26Z</time>
      </trkpt>
      <trkpt lat="45.92755" lon="4.63298">
        <ele>342</ele>
        <time>2017-09-24T18:14:45Z</time>
      </trkpt>
      <trkpt lat="45.92754" lon="4.63229">
        <ele>343</ele>
        <time>2017-09-24T18:15:01Z</time>
      </trkpt>
      <trkpt lat="45.92757" lon="4.63189">
        <ele>344</ele>
        <time>2017-09-24T18:15:10Z</time>
      </trkpt>
      <trkpt lat="45.92763" lon="4.63144">
        <ele>345</ele>
        <time>2017-09-24T18:15:21Z</time>
      </trkpt>
      <trkpt lat="45.92768" lon="4.63106">
        <ele>346</ele>
        <time>2017-09-24T18:15:30Z</time>
      </trkpt>
      <trkpt lat="45.92773" lon="4.63069">
        <ele>348</ele>
        <time>2017-09-24T18:15:39Z</time>
      </trkpt>
      <trkpt lat="45.92773" lon="4.63032">
        <ele>349</ele>
        <time>2017-09-24T18:15:48Z</time>
      </trkpt>
      <trkpt lat="45.92771" lon="4.62989">
        <ele>350</ele>
        <time>2017-09-24T18:15:59Z</time>
      </trkpt>
      <trkpt lat="45.92771" lon="4.6295">
        <ele>351</ele>
        <time>2017-09-24T18:16:09Z</time>
      </trkpt>
      <trkpt lat="45.92771" lon="4.62923">
        <ele>352</ele>
        <time>2017-09-24T18:16:18Z</time>
      </trkpt>
      <trkpt lat="45.9277" lon="4.62898">
        <ele>353</ele>
        <time>2017-09-24T18:16:30Z</time>
      </trkpt>
      <trkpt lat="45.92771" lon="4.62877">
        <ele>354</ele>
        <time>2017-09-24T18:16:40Z</time>
      </trkpt>
      <trkpt lat="45.92771" lon="4.62854">
        <ele>355</ele>
        <time>2017-09-24T18:16:51Z</time>
      </trkpt>
      <trkpt lat="45.92771" lon="4.62835">
        <ele>356</ele>
        <time>2017-09-24T18:17:00Z</time>
      </trkpt>
      <trkpt lat="45.9277" lon="4.62819">
        <ele>357</ele>
        <time>2017-09-24T18:17:08Z</time>
      </trkpt>
      <trkpt lat="45.92769" lon="4.628">
        <ele>358</ele>
        <time>2017-09-24T18:17:16Z</time>
      </trkpt>
      <trkpt lat="45.92765" lon="4.62784">
        <ele>359</ele>
        <time>2017-09-24T18:17:24Z</time>
      </trkpt>
      <trkpt lat="45.9276" lon="4.6277">
        <ele>361</ele>
        <time>2017-09-24T18:17:31Z</time>
      </trkpt>
      <trkpt lat="45.92749" lon="4.62735">
        <ele>362</ele>
        <time>2017-09-24T18:17:45Z</time>
      </trkpt>
      <trkpt lat="45.92747" lon="4.62708">
        <ele>363</ele>
        <time>2017-09-24T18:17:53Z</time>
      </trkpt>
      <trkpt lat="45.92746" lon="4.62685">
        <ele>364</ele>
        <time>2017-09-24T18:18:05Z</time>
      </trkpt>
      <trkpt lat="45.92744" lon="4.62666">
        <ele>365</ele>
        <time>2017-09-24T18:18:16Z</time>
      </trkpt>
      <trkpt lat="45.92742" lon="4.62641">
        <ele>366</ele>
        <time>2017-09-24T18:18:31Z</time>
      </trkpt>
      <trkpt lat="45.92737" lon="4.62617">
        <ele>367</ele>
        <time>2017-09-24T18:19:02Z</time>
      </trkpt>
      <trkpt lat="45.92737" lon="4.62599">
        <ele>368</ele>
        <time>2017-09-24T18:19:14Z</time>
      </trkpt>
      <trkpt lat="45.92736" lon="4.62583">
        <ele>369</ele>
        <time>2017-09-24T18:19:27Z</time>
      </trkpt>
      <trkpt lat="45.92735" lon="4.62573">
        <ele>370</ele>
        <time>2017-09-24T18:19:33Z</time>
      </trkpt>
      <trkpt lat="45.92735" lon="4.62573">
        <ele>370</ele>
        <time>2017-09-24T18:19:35Z</time>
      </trkpt>
      <trkpt lat="45.92736" lon="4.62573">
        <ele>370</ele>
        <time>2017-09-24T18:20:03Z</time>
      </trkpt>
      <trkpt lat="45.92735" lon="4.62573">
        <ele>370</ele>
        <time>2017-09-24T18:20:20Z</time>
      </trkpt>
      <trkpt lat="45.92732" lon="4.62544">
        <ele>371</ele>
        <time>2017-09-24T18:20:36Z</time>
      </trkpt>
      <trkpt lat="45.92732" lon="4.62526">
        <ele>372</ele>
        <time>2017-09-24T18:20:45Z</time>
      </trkpt>
      <trkpt lat="45.92732" lon="4.62505">
        <ele>373</ele>
        <time>2017-09-24T18:20:54Z</time>
      </trkpt>
      <trkpt lat="45.92731" lon="4.62487">
        <ele>374</ele>
        <time>2017-09-24T18:21:00Z</time>
      </trkpt>
      <trkpt lat="45.92732" lon="4.62462">
        <ele>375</ele>
        <time>2017-09-24T18:21:07Z</time>
      </trkpt>
      <trkpt lat="45.92732" lon="4.62442">
        <ele>377</ele>
        <time>2017-09-24T18:21:13Z</time>
      </trkpt>
      <trkpt lat="45.92732" lon="4.62415">
        <ele>378</ele>
        <time>2017-09-24T18:21:22Z</time>
      </trkpt>
      <trkpt lat="45.92731" lon="4.62377">
        <ele>379</ele>
        <time>2017-09-24T18:21:33Z</time>
      </trkpt>
      <trkpt lat="45.92726" lon="4.62348">
        <ele>380</ele>
        <time>2017-09-24T18:21:42Z</time>
      </trkpt>
      <trkpt lat="45.92721" lon="4.62324">
        <ele>380</ele>
        <time>2017-09-24T18:21:50Z</time>
      </trkpt>
      <trkpt lat="45.92723" lon="4.62313">
        <ele>381</ele>
        <time>2017-09-24T18:21:55Z</time>
      </trkpt>
      <trkpt lat="45.92723" lon="4.62312">
        <ele>381</ele>
        <time>2017-09-24T18:21:56Z</time>
      </trkpt>
    </trkseg>
  </trk>
</gpx>